<?xml version="1.0" encoding="UTF-8" standalone="no" ?>
<gpx xmlns="http://www.topografix.com/GPX/1/1" xmlns:xsi="http://www.w3.org/2001/XMLSchema-instance" xsi:schemaLocation="http://www.topografix.com/GPX/1/1 http://www.topografix.com/GPX/1/1/gpx.xsd" version="1.1" creator="VisuGPX - https://www.visugpx.com">
  <metadata>
    <name>vtt sortie club la provostière groupe 4</name>
    <desc><![CDATA[circuit nature autour de l'étang de la provostière,pluie fine en fin de parcourt]]></desc>
  </metadata>
  <trk>
    <name><![CDATA[2018-09-22-15-08-23 on GPSies.com]]></name>
    <trkseg>
      <trkpt lat="47.52545" lon="-1.34794">
        <ele>33</ele>
        <time>2018-09-22T15:08:23Z</time>
      </trkpt>
      <trkpt lat="47.52548" lon="-1.34759">
        <ele>34</ele>
        <time>2018-09-22T15:11:08Z</time>
      </trkpt>
      <trkpt lat="47.52545" lon="-1.34752">
        <ele>34</ele>
        <time>2018-09-22T15:11:10Z</time>
      </trkpt>
      <trkpt lat="47.52535" lon="-1.34725">
        <ele>34</ele>
        <time>2018-09-22T15:11:17Z</time>
      </trkpt>
      <trkpt lat="47.5252" lon="-1.34697">
        <ele>34</ele>
        <time>2018-09-22T15:11:24Z</time>
      </trkpt>
      <trkpt lat="47.52497" lon="-1.34667">
        <ele>34</ele>
        <time>2018-09-22T15:11:32Z</time>
      </trkpt>
      <trkpt lat="47.52467" lon="-1.34632">
        <ele>34</ele>
        <time>2018-09-22T15:11:41Z</time>
      </trkpt>
      <trkpt lat="47.52446" lon="-1.34608">
        <ele>34</ele>
        <time>2018-09-22T15:11:48Z</time>
      </trkpt>
      <trkpt lat="47.52431" lon="-1.34593">
        <ele>35</ele>
        <time>2018-09-22T15:11:53Z</time>
      </trkpt>
      <trkpt lat="47.52416" lon="-1.34576">
        <ele>35</ele>
        <time>2018-09-22T15:11:58Z</time>
      </trkpt>
      <trkpt lat="47.52388" lon="-1.3455">
        <ele>34</ele>
        <time>2018-09-22T15:12:07Z</time>
      </trkpt>
      <trkpt lat="47.52373" lon="-1.34528">
        <ele>35</ele>
        <time>2018-09-22T15:12:14Z</time>
      </trkpt>
      <trkpt lat="47.52378" lon="-1.34522">
        <ele>35</ele>
        <time>2018-09-22T15:12:17Z</time>
      </trkpt>
      <trkpt lat="47.52383" lon="-1.34518">
        <ele>35</ele>
        <time>2018-09-22T15:12:21Z</time>
      </trkpt>
      <trkpt lat="47.52386" lon="-1.34507">
        <ele>34</ele>
        <time>2018-09-22T15:12:24Z</time>
      </trkpt>
      <trkpt lat="47.52388" lon="-1.34502">
        <ele>34</ele>
        <time>2018-09-22T15:12:25Z</time>
      </trkpt>
      <trkpt lat="47.52394" lon="-1.34473">
        <ele>34</ele>
        <time>2018-09-22T15:12:31Z</time>
      </trkpt>
      <trkpt lat="47.52395" lon="-1.34468">
        <ele>34</ele>
        <time>2018-09-22T15:12:32Z</time>
      </trkpt>
      <trkpt lat="47.52401" lon="-1.3444">
        <ele>33</ele>
        <time>2018-09-22T15:12:38Z</time>
      </trkpt>
      <trkpt lat="47.52404" lon="-1.34409">
        <ele>33</ele>
        <time>2018-09-22T15:12:44Z</time>
      </trkpt>
      <trkpt lat="47.52404" lon="-1.34382">
        <ele>33</ele>
        <time>2018-09-22T15:12:49Z</time>
      </trkpt>
      <trkpt lat="47.52414" lon="-1.34355">
        <ele>33</ele>
        <time>2018-09-22T15:12:55Z</time>
      </trkpt>
      <trkpt lat="47.52422" lon="-1.34331">
        <ele>33</ele>
        <time>2018-09-22T15:13:00Z</time>
      </trkpt>
      <trkpt lat="47.52432" lon="-1.34306">
        <ele>33</ele>
        <time>2018-09-22T15:13:06Z</time>
      </trkpt>
      <trkpt lat="47.5244" lon="-1.34279">
        <ele>33</ele>
        <time>2018-09-22T15:13:11Z</time>
      </trkpt>
      <trkpt lat="47.5245" lon="-1.34246">
        <ele>33</ele>
        <time>2018-09-22T15:13:18Z</time>
      </trkpt>
      <trkpt lat="47.52459" lon="-1.34206">
        <ele>33</ele>
        <time>2018-09-22T15:13:26Z</time>
      </trkpt>
      <trkpt lat="47.52458" lon="-1.34186">
        <ele>33</ele>
        <time>2018-09-22T15:13:30Z</time>
      </trkpt>
      <trkpt lat="47.52449" lon="-1.34161">
        <ele>33</ele>
        <time>2018-09-22T15:13:35Z</time>
      </trkpt>
      <trkpt lat="47.52435" lon="-1.34139">
        <ele>33</ele>
        <time>2018-09-22T15:13:41Z</time>
      </trkpt>
      <trkpt lat="47.52432" lon="-1.34122">
        <ele>33</ele>
        <time>2018-09-22T15:13:45Z</time>
      </trkpt>
      <trkpt lat="47.52439" lon="-1.34098">
        <ele>33</ele>
        <time>2018-09-22T15:13:50Z</time>
      </trkpt>
      <trkpt lat="47.52449" lon="-1.34069">
        <ele>33</ele>
        <time>2018-09-22T15:13:56Z</time>
      </trkpt>
      <trkpt lat="47.52462" lon="-1.34034">
        <ele>33</ele>
        <time>2018-09-22T15:14:03Z</time>
      </trkpt>
      <trkpt lat="47.52473" lon="-1.33992">
        <ele>34</ele>
        <time>2018-09-22T15:14:11Z</time>
      </trkpt>
      <trkpt lat="47.5248" lon="-1.33955">
        <ele>34</ele>
        <time>2018-09-22T15:14:18Z</time>
      </trkpt>
      <trkpt lat="47.52491" lon="-1.33921">
        <ele>34</ele>
        <time>2018-09-22T15:14:25Z</time>
      </trkpt>
      <trkpt lat="47.52502" lon="-1.33893">
        <ele>34</ele>
        <time>2018-09-22T15:14:31Z</time>
      </trkpt>
      <trkpt lat="47.52514" lon="-1.33871">
        <ele>33</ele>
        <time>2018-09-22T15:14:36Z</time>
      </trkpt>
      <trkpt lat="47.52527" lon="-1.33842">
        <ele>33</ele>
        <time>2018-09-22T15:14:43Z</time>
      </trkpt>
      <trkpt lat="47.52537" lon="-1.33825">
        <ele>33</ele>
        <time>2018-09-22T15:14:48Z</time>
      </trkpt>
      <trkpt lat="47.52547" lon="-1.33813">
        <ele>33</ele>
        <time>2018-09-22T15:14:53Z</time>
      </trkpt>
      <trkpt lat="47.52549" lon="-1.33813">
        <ele>33</ele>
        <time>2018-09-22T15:14:54Z</time>
      </trkpt>
      <trkpt lat="47.52564" lon="-1.33811">
        <ele>33</ele>
        <time>2018-09-22T15:14:59Z</time>
      </trkpt>
      <trkpt lat="47.52571" lon="-1.33805">
        <ele>33</ele>
        <time>2018-09-22T15:15:01Z</time>
      </trkpt>
      <trkpt lat="47.52573" lon="-1.338">
        <ele>33</ele>
        <time>2018-09-22T15:15:02Z</time>
      </trkpt>
      <trkpt lat="47.5258" lon="-1.33771">
        <ele>33</ele>
        <time>2018-09-22T15:15:08Z</time>
      </trkpt>
      <trkpt lat="47.52585" lon="-1.33752">
        <ele>33</ele>
        <time>2018-09-22T15:15:13Z</time>
      </trkpt>
      <trkpt lat="47.52584" lon="-1.33749">
        <ele>33</ele>
        <time>2018-09-22T15:15:14Z</time>
      </trkpt>
      <trkpt lat="47.52576" lon="-1.33734">
        <ele>33</ele>
        <time>2018-09-22T15:15:18Z</time>
      </trkpt>
      <trkpt lat="47.52574" lon="-1.3373">
        <ele>33</ele>
        <time>2018-09-22T15:15:19Z</time>
      </trkpt>
      <trkpt lat="47.52567" lon="-1.3372">
        <ele>33</ele>
        <time>2018-09-22T15:15:22Z</time>
      </trkpt>
      <trkpt lat="47.5256" lon="-1.33713">
        <ele>33</ele>
        <time>2018-09-22T15:15:25Z</time>
      </trkpt>
      <trkpt lat="47.52551" lon="-1.33697">
        <ele>33</ele>
        <time>2018-09-22T15:15:31Z</time>
      </trkpt>
      <trkpt lat="47.52548" lon="-1.33688">
        <ele>33</ele>
        <time>2018-09-22T15:15:35Z</time>
      </trkpt>
      <trkpt lat="47.52546" lon="-1.33678">
        <ele>33</ele>
        <time>2018-09-22T15:15:37Z</time>
      </trkpt>
      <trkpt lat="47.5254" lon="-1.33652">
        <ele>33</ele>
        <time>2018-09-22T15:15:43Z</time>
      </trkpt>
      <trkpt lat="47.52536" lon="-1.33627">
        <ele>33</ele>
        <time>2018-09-22T15:15:48Z</time>
      </trkpt>
      <trkpt lat="47.52529" lon="-1.33603">
        <ele>33</ele>
        <time>2018-09-22T15:15:53Z</time>
      </trkpt>
      <trkpt lat="47.52526" lon="-1.33572">
        <ele>33</ele>
        <time>2018-09-22T15:15:59Z</time>
      </trkpt>
      <trkpt lat="47.52518" lon="-1.33542">
        <ele>33</ele>
        <time>2018-09-22T15:16:05Z</time>
      </trkpt>
      <trkpt lat="47.52514" lon="-1.33507">
        <ele>33</ele>
        <time>2018-09-22T15:16:12Z</time>
      </trkpt>
      <trkpt lat="47.52508" lon="-1.33468">
        <ele>32</ele>
        <time>2018-09-22T15:16:20Z</time>
      </trkpt>
      <trkpt lat="47.52508" lon="-1.33451">
        <ele>32</ele>
        <time>2018-09-22T15:16:24Z</time>
      </trkpt>
      <trkpt lat="47.52508" lon="-1.33423">
        <ele>33</ele>
        <time>2018-09-22T15:16:30Z</time>
      </trkpt>
      <trkpt lat="47.52509" lon="-1.33409">
        <ele>33</ele>
        <time>2018-09-22T15:16:35Z</time>
      </trkpt>
      <trkpt lat="47.52509" lon="-1.33407">
        <ele>33</ele>
        <time>2018-09-22T15:16:36Z</time>
      </trkpt>
      <trkpt lat="47.52511" lon="-1.33397">
        <ele>33</ele>
        <time>2018-09-22T15:16:41Z</time>
      </trkpt>
      <trkpt lat="47.52512" lon="-1.33378">
        <ele>33</ele>
        <time>2018-09-22T15:16:46Z</time>
      </trkpt>
      <trkpt lat="47.52517" lon="-1.33346">
        <ele>33</ele>
        <time>2018-09-22T15:17:21Z</time>
      </trkpt>
      <trkpt lat="47.52517" lon="-1.33344">
        <ele>33</ele>
        <time>2018-09-22T15:17:22Z</time>
      </trkpt>
      <trkpt lat="47.52521" lon="-1.33332">
        <ele>33</ele>
        <time>2018-09-22T15:17:26Z</time>
      </trkpt>
      <trkpt lat="47.52525" lon="-1.33319">
        <ele>33</ele>
        <time>2018-09-22T15:17:31Z</time>
      </trkpt>
      <trkpt lat="47.52528" lon="-1.33309">
        <ele>33</ele>
        <time>2018-09-22T15:17:35Z</time>
      </trkpt>
      <trkpt lat="47.52531" lon="-1.33304">
        <ele>33</ele>
        <time>2018-09-22T15:17:37Z</time>
      </trkpt>
      <trkpt lat="47.52541" lon="-1.33281">
        <ele>33</ele>
        <time>2018-09-22T15:17:44Z</time>
      </trkpt>
      <trkpt lat="47.52548" lon="-1.3326">
        <ele>33</ele>
        <time>2018-09-22T15:17:50Z</time>
      </trkpt>
      <trkpt lat="47.52554" lon="-1.3324">
        <ele>33</ele>
        <time>2018-09-22T15:17:55Z</time>
      </trkpt>
      <trkpt lat="47.52567" lon="-1.33207">
        <ele>33</ele>
        <time>2018-09-22T15:18:03Z</time>
      </trkpt>
      <trkpt lat="47.52576" lon="-1.33176">
        <ele>33</ele>
        <time>2018-09-22T15:18:10Z</time>
      </trkpt>
      <trkpt lat="47.52578" lon="-1.33155">
        <ele>33</ele>
        <time>2018-09-22T15:18:15Z</time>
      </trkpt>
      <trkpt lat="47.52576" lon="-1.33126">
        <ele>33</ele>
        <time>2018-09-22T15:18:21Z</time>
      </trkpt>
      <trkpt lat="47.5257" lon="-1.33112">
        <ele>33</ele>
        <time>2018-09-22T15:18:26Z</time>
      </trkpt>
      <trkpt lat="47.52565" lon="-1.33099">
        <ele>33</ele>
        <time>2018-09-22T15:18:31Z</time>
      </trkpt>
      <trkpt lat="47.52561" lon="-1.33088">
        <ele>33</ele>
        <time>2018-09-22T15:18:35Z</time>
      </trkpt>
      <trkpt lat="47.52557" lon="-1.33083">
        <ele>33</ele>
        <time>2018-09-22T15:18:37Z</time>
      </trkpt>
      <trkpt lat="47.52546" lon="-1.33069">
        <ele>33</ele>
        <time>2018-09-22T15:18:43Z</time>
      </trkpt>
      <trkpt lat="47.52534" lon="-1.33064">
        <ele>33</ele>
        <time>2018-09-22T15:18:48Z</time>
      </trkpt>
      <trkpt lat="47.5252" lon="-1.3306">
        <ele>33</ele>
        <time>2018-09-22T15:18:53Z</time>
      </trkpt>
      <trkpt lat="47.5251" lon="-1.33056">
        <ele>33</ele>
        <time>2018-09-22T15:18:57Z</time>
      </trkpt>
      <trkpt lat="47.52507" lon="-1.33055">
        <ele>33</ele>
        <time>2018-09-22T15:18:58Z</time>
      </trkpt>
      <trkpt lat="47.52496" lon="-1.33047">
        <ele>33</ele>
        <time>2018-09-22T15:19:02Z</time>
      </trkpt>
      <trkpt lat="47.52493" lon="-1.33047">
        <ele>33</ele>
        <time>2018-09-22T15:19:03Z</time>
      </trkpt>
      <trkpt lat="47.5248" lon="-1.3304">
        <ele>33</ele>
        <time>2018-09-22T15:19:07Z</time>
      </trkpt>
      <trkpt lat="47.52477" lon="-1.33036">
        <ele>33</ele>
        <time>2018-09-22T15:19:08Z</time>
      </trkpt>
      <trkpt lat="47.52464" lon="-1.33002">
        <ele>33</ele>
        <time>2018-09-22T15:19:15Z</time>
      </trkpt>
      <trkpt lat="47.52458" lon="-1.32971">
        <ele>33</ele>
        <time>2018-09-22T15:19:21Z</time>
      </trkpt>
      <trkpt lat="47.52455" lon="-1.32937">
        <ele>33</ele>
        <time>2018-09-22T15:19:27Z</time>
      </trkpt>
      <trkpt lat="47.52455" lon="-1.32906">
        <ele>33</ele>
        <time>2018-09-22T15:19:33Z</time>
      </trkpt>
      <trkpt lat="47.52457" lon="-1.32875">
        <ele>33</ele>
        <time>2018-09-22T15:19:39Z</time>
      </trkpt>
      <trkpt lat="47.52458" lon="-1.32845">
        <ele>33</ele>
        <time>2018-09-22T15:19:45Z</time>
      </trkpt>
      <trkpt lat="47.52464" lon="-1.32826">
        <ele>33</ele>
        <time>2018-09-22T15:19:50Z</time>
      </trkpt>
      <trkpt lat="47.52472" lon="-1.32806">
        <ele>33</ele>
        <time>2018-09-22T15:19:55Z</time>
      </trkpt>
      <trkpt lat="47.52479" lon="-1.32785">
        <ele>33</ele>
        <time>2018-09-22T15:20:00Z</time>
      </trkpt>
      <trkpt lat="47.52481" lon="-1.32781">
        <ele>34</ele>
        <time>2018-09-22T15:20:01Z</time>
      </trkpt>
      <trkpt lat="47.52496" lon="-1.32751">
        <ele>34</ele>
        <time>2018-09-22T15:20:07Z</time>
      </trkpt>
      <trkpt lat="47.52502" lon="-1.32743">
        <ele>34</ele>
        <time>2018-09-22T15:20:11Z</time>
      </trkpt>
      <trkpt lat="47.52502" lon="-1.32741">
        <ele>34</ele>
        <time>2018-09-22T15:20:12Z</time>
      </trkpt>
      <trkpt lat="47.52508" lon="-1.32732">
        <ele>34</ele>
        <time>2018-09-22T15:20:16Z</time>
      </trkpt>
      <trkpt lat="47.52512" lon="-1.32722">
        <ele>34</ele>
        <time>2018-09-22T15:20:19Z</time>
      </trkpt>
      <trkpt lat="47.52519" lon="-1.32707">
        <ele>34</ele>
        <time>2018-09-22T15:20:23Z</time>
      </trkpt>
      <trkpt lat="47.52524" lon="-1.32676">
        <ele>33</ele>
        <time>2018-09-22T15:20:29Z</time>
      </trkpt>
      <trkpt lat="47.52526" lon="-1.32638">
        <ele>33</ele>
        <time>2018-09-22T15:20:36Z</time>
      </trkpt>
      <trkpt lat="47.52523" lon="-1.32606">
        <ele>33</ele>
        <time>2018-09-22T15:20:42Z</time>
      </trkpt>
      <trkpt lat="47.52519" lon="-1.32574">
        <ele>34</ele>
        <time>2018-09-22T15:20:48Z</time>
      </trkpt>
      <trkpt lat="47.52515" lon="-1.32548">
        <ele>34</ele>
        <time>2018-09-22T15:20:54Z</time>
      </trkpt>
      <trkpt lat="47.52519" lon="-1.32538">
        <ele>33</ele>
        <time>2018-09-22T15:20:58Z</time>
      </trkpt>
      <trkpt lat="47.52524" lon="-1.32517">
        <ele>33</ele>
        <time>2018-09-22T15:21:03Z</time>
      </trkpt>
      <trkpt lat="47.52527" lon="-1.32493">
        <ele>33</ele>
        <time>2018-09-22T15:21:07Z</time>
      </trkpt>
      <trkpt lat="47.52534" lon="-1.32453">
        <ele>33</ele>
        <time>2018-09-22T15:21:14Z</time>
      </trkpt>
      <trkpt lat="47.52535" lon="-1.3242">
        <ele>34</ele>
        <time>2018-09-22T15:21:20Z</time>
      </trkpt>
      <trkpt lat="47.52539" lon="-1.32397">
        <ele>34</ele>
        <time>2018-09-22T15:21:26Z</time>
      </trkpt>
      <trkpt lat="47.52545" lon="-1.3238">
        <ele>33</ele>
        <time>2018-09-22T15:21:31Z</time>
      </trkpt>
      <trkpt lat="47.52556" lon="-1.32366">
        <ele>33</ele>
        <time>2018-09-22T15:21:36Z</time>
      </trkpt>
      <trkpt lat="47.52565" lon="-1.32349">
        <ele>33</ele>
        <time>2018-09-22T15:21:41Z</time>
      </trkpt>
      <trkpt lat="47.52575" lon="-1.32338">
        <ele>33</ele>
        <time>2018-09-22T15:21:46Z</time>
      </trkpt>
      <trkpt lat="47.52583" lon="-1.32327">
        <ele>34</ele>
        <time>2018-09-22T15:21:50Z</time>
      </trkpt>
      <trkpt lat="47.52599" lon="-1.32304">
        <ele>34</ele>
        <time>2018-09-22T15:21:55Z</time>
      </trkpt>
      <trkpt lat="47.52616" lon="-1.32285">
        <ele>34</ele>
        <time>2018-09-22T15:22:01Z</time>
      </trkpt>
      <trkpt lat="47.52631" lon="-1.32275">
        <ele>34</ele>
        <time>2018-09-22T15:22:07Z</time>
      </trkpt>
      <trkpt lat="47.52641" lon="-1.32275">
        <ele>34</ele>
        <time>2018-09-22T15:22:11Z</time>
      </trkpt>
      <trkpt lat="47.52644" lon="-1.32273">
        <ele>34</ele>
        <time>2018-09-22T15:22:12Z</time>
      </trkpt>
      <trkpt lat="47.52659" lon="-1.32272">
        <ele>34</ele>
        <time>2018-09-22T15:22:17Z</time>
      </trkpt>
      <trkpt lat="47.5267" lon="-1.32269">
        <ele>34</ele>
        <time>2018-09-22T15:22:20Z</time>
      </trkpt>
      <trkpt lat="47.52681" lon="-1.32264">
        <ele>34</ele>
        <time>2018-09-22T15:22:23Z</time>
      </trkpt>
      <trkpt lat="47.52704" lon="-1.32243">
        <ele>34</ele>
        <time>2018-09-22T15:22:29Z</time>
      </trkpt>
      <trkpt lat="47.52721" lon="-1.32223">
        <ele>34</ele>
        <time>2018-09-22T15:22:35Z</time>
      </trkpt>
      <trkpt lat="47.52735" lon="-1.32205">
        <ele>34</ele>
        <time>2018-09-22T15:22:40Z</time>
      </trkpt>
      <trkpt lat="47.52745" lon="-1.32193">
        <ele>34</ele>
        <time>2018-09-22T15:22:44Z</time>
      </trkpt>
      <trkpt lat="47.52746" lon="-1.3219">
        <ele>34</ele>
        <time>2018-09-22T15:22:45Z</time>
      </trkpt>
      <trkpt lat="47.52754" lon="-1.32173">
        <ele>34</ele>
        <time>2018-09-22T15:22:50Z</time>
      </trkpt>
      <trkpt lat="47.52766" lon="-1.32141">
        <ele>33</ele>
        <time>2018-09-22T15:22:56Z</time>
      </trkpt>
      <trkpt lat="47.52777" lon="-1.32108">
        <ele>33</ele>
        <time>2018-09-22T15:23:02Z</time>
      </trkpt>
      <trkpt lat="47.5279" lon="-1.32076">
        <ele>33</ele>
        <time>2018-09-22T15:23:08Z</time>
      </trkpt>
      <trkpt lat="47.52805" lon="-1.32058">
        <ele>34</ele>
        <time>2018-09-22T15:23:13Z</time>
      </trkpt>
      <trkpt lat="47.52811" lon="-1.32038">
        <ele>34</ele>
        <time>2018-09-22T15:23:17Z</time>
      </trkpt>
      <trkpt lat="47.52817" lon="-1.32024">
        <ele>34</ele>
        <time>2018-09-22T15:23:21Z</time>
      </trkpt>
      <trkpt lat="47.52819" lon="-1.32024">
        <ele>34</ele>
        <time>2018-09-22T15:23:22Z</time>
      </trkpt>
      <trkpt lat="47.52825" lon="-1.32032">
        <ele>34</ele>
        <time>2018-09-22T15:23:25Z</time>
      </trkpt>
      <trkpt lat="47.52827" lon="-1.32035">
        <ele>34</ele>
        <time>2018-09-22T15:23:26Z</time>
      </trkpt>
      <trkpt lat="47.52837" lon="-1.3205">
        <ele>34</ele>
        <time>2018-09-22T15:23:32Z</time>
      </trkpt>
      <trkpt lat="47.52843" lon="-1.32051">
        <ele>34</ele>
        <time>2018-09-22T15:27:22Z</time>
      </trkpt>
      <trkpt lat="47.52844" lon="-1.32053">
        <ele>34</ele>
        <time>2018-09-22T15:27:23Z</time>
      </trkpt>
      <trkpt lat="47.52858" lon="-1.32072">
        <ele>34</ele>
        <time>2018-09-22T15:27:33Z</time>
      </trkpt>
      <trkpt lat="47.5286" lon="-1.32075">
        <ele>34</ele>
        <time>2018-09-22T15:27:36Z</time>
      </trkpt>
      <trkpt lat="47.52863" lon="-1.32081">
        <ele>34</ele>
        <time>2018-09-22T15:27:39Z</time>
      </trkpt>
      <trkpt lat="47.52869" lon="-1.32091">
        <ele>34</ele>
        <time>2018-09-22T15:27:44Z</time>
      </trkpt>
      <trkpt lat="47.5288" lon="-1.32109">
        <ele>34</ele>
        <time>2018-09-22T15:27:51Z</time>
      </trkpt>
      <trkpt lat="47.52898" lon="-1.32143">
        <ele>34</ele>
        <time>2018-09-22T15:27:59Z</time>
      </trkpt>
      <trkpt lat="47.52908" lon="-1.32171">
        <ele>34</ele>
        <time>2018-09-22T15:28:05Z</time>
      </trkpt>
      <trkpt lat="47.52924" lon="-1.3221">
        <ele>35</ele>
        <time>2018-09-22T15:28:14Z</time>
      </trkpt>
      <trkpt lat="47.5294" lon="-1.32246">
        <ele>35</ele>
        <time>2018-09-22T15:28:22Z</time>
      </trkpt>
      <trkpt lat="47.52945" lon="-1.3226">
        <ele>36</ele>
        <time>2018-09-22T15:28:25Z</time>
      </trkpt>
      <trkpt lat="47.52955" lon="-1.32284">
        <ele>36</ele>
        <time>2018-09-22T15:28:30Z</time>
      </trkpt>
      <trkpt lat="47.52971" lon="-1.32315">
        <ele>35</ele>
        <time>2018-09-22T15:28:37Z</time>
      </trkpt>
      <trkpt lat="47.52985" lon="-1.32351">
        <ele>35</ele>
        <time>2018-09-22T15:28:44Z</time>
      </trkpt>
      <trkpt lat="47.53002" lon="-1.32392">
        <ele>35</ele>
        <time>2018-09-22T15:28:52Z</time>
      </trkpt>
      <trkpt lat="47.5302" lon="-1.3244">
        <ele>35</ele>
        <time>2018-09-22T15:29:00Z</time>
      </trkpt>
      <trkpt lat="47.53037" lon="-1.32482">
        <ele>35</ele>
        <time>2018-09-22T15:29:08Z</time>
      </trkpt>
      <trkpt lat="47.53045" lon="-1.32503">
        <ele>35</ele>
        <time>2018-09-22T15:29:14Z</time>
      </trkpt>
      <trkpt lat="47.53044" lon="-1.3251">
        <ele>35</ele>
        <time>2018-09-22T15:29:47Z</time>
      </trkpt>
      <trkpt lat="47.53037" lon="-1.32513">
        <ele>35</ele>
        <time>2018-09-22T15:29:50Z</time>
      </trkpt>
      <trkpt lat="47.53023" lon="-1.32523">
        <ele>35</ele>
        <time>2018-09-22T15:29:54Z</time>
      </trkpt>
      <trkpt lat="47.53017" lon="-1.32531">
        <ele>35</ele>
        <time>2018-09-22T15:29:56Z</time>
      </trkpt>
      <trkpt lat="47.53012" lon="-1.32541">
        <ele>34</ele>
        <time>2018-09-22T15:29:58Z</time>
      </trkpt>
      <trkpt lat="47.53007" lon="-1.32549">
        <ele>34</ele>
        <time>2018-09-22T15:30:00Z</time>
      </trkpt>
      <trkpt lat="47.52994" lon="-1.32576">
        <ele>34</ele>
        <time>2018-09-22T15:30:05Z</time>
      </trkpt>
      <trkpt lat="47.52982" lon="-1.32609">
        <ele>34</ele>
        <time>2018-09-22T15:30:11Z</time>
      </trkpt>
      <trkpt lat="47.52981" lon="-1.32613">
        <ele>34</ele>
        <time>2018-09-22T15:30:12Z</time>
      </trkpt>
      <trkpt lat="47.52978" lon="-1.32646">
        <ele>34</ele>
        <time>2018-09-22T15:30:19Z</time>
      </trkpt>
      <trkpt lat="47.52978" lon="-1.32686">
        <ele>34</ele>
        <time>2018-09-22T15:30:26Z</time>
      </trkpt>
      <trkpt lat="47.52976" lon="-1.32702">
        <ele>34</ele>
        <time>2018-09-22T15:30:30Z</time>
      </trkpt>
      <trkpt lat="47.52972" lon="-1.32735">
        <ele>33</ele>
        <time>2018-09-22T15:30:36Z</time>
      </trkpt>
      <trkpt lat="47.52963" lon="-1.32768">
        <ele>33</ele>
        <time>2018-09-22T15:30:42Z</time>
      </trkpt>
      <trkpt lat="47.52954" lon="-1.32809">
        <ele>34</ele>
        <time>2018-09-22T15:30:49Z</time>
      </trkpt>
      <trkpt lat="47.52944" lon="-1.32845">
        <ele>34</ele>
        <time>2018-09-22T15:30:56Z</time>
      </trkpt>
      <trkpt lat="47.5293" lon="-1.32888">
        <ele>34</ele>
        <time>2018-09-22T15:31:05Z</time>
      </trkpt>
      <trkpt lat="47.52923" lon="-1.32922">
        <ele>33</ele>
        <time>2018-09-22T15:31:12Z</time>
      </trkpt>
      <trkpt lat="47.52914" lon="-1.32958">
        <ele>34</ele>
        <time>2018-09-22T15:31:19Z</time>
      </trkpt>
      <trkpt lat="47.52901" lon="-1.32989">
        <ele>34</ele>
        <time>2018-09-22T15:31:26Z</time>
      </trkpt>
      <trkpt lat="47.52898" lon="-1.32999">
        <ele>34</ele>
        <time>2018-09-22T15:31:29Z</time>
      </trkpt>
      <trkpt lat="47.52897" lon="-1.33">
        <ele>34</ele>
        <time>2018-09-22T15:31:30Z</time>
      </trkpt>
      <trkpt lat="47.52897" lon="-1.33009">
        <ele>35</ele>
        <time>2018-09-22T15:31:47Z</time>
      </trkpt>
      <trkpt lat="47.52898" lon="-1.33012">
        <ele>35</ele>
        <time>2018-09-22T15:31:48Z</time>
      </trkpt>
      <trkpt lat="47.52907" lon="-1.33031">
        <ele>35</ele>
        <time>2018-09-22T15:31:52Z</time>
      </trkpt>
      <trkpt lat="47.52926" lon="-1.33075">
        <ele>36</ele>
        <time>2018-09-22T15:31:59Z</time>
      </trkpt>
      <trkpt lat="47.52931" lon="-1.33087">
        <ele>36</ele>
        <time>2018-09-22T15:32:01Z</time>
      </trkpt>
      <trkpt lat="47.52931" lon="-1.33099">
        <ele>35</ele>
        <time>2018-09-22T15:32:03Z</time>
      </trkpt>
      <trkpt lat="47.52926" lon="-1.33111">
        <ele>35</ele>
        <time>2018-09-22T15:32:05Z</time>
      </trkpt>
      <trkpt lat="47.52924" lon="-1.33118">
        <ele>35</ele>
        <time>2018-09-22T15:32:06Z</time>
      </trkpt>
      <trkpt lat="47.52923" lon="-1.33146">
        <ele>35</ele>
        <time>2018-09-22T15:32:10Z</time>
      </trkpt>
      <trkpt lat="47.52924" lon="-1.33171">
        <ele>35</ele>
        <time>2018-09-22T15:32:14Z</time>
      </trkpt>
      <trkpt lat="47.52924" lon="-1.33186">
        <ele>35</ele>
        <time>2018-09-22T15:32:16Z</time>
      </trkpt>
      <trkpt lat="47.52921" lon="-1.33217">
        <ele>36</ele>
        <time>2018-09-22T15:32:20Z</time>
      </trkpt>
      <trkpt lat="47.52918" lon="-1.33231">
        <ele>36</ele>
        <time>2018-09-22T15:32:22Z</time>
      </trkpt>
      <trkpt lat="47.5291" lon="-1.3328">
        <ele>36</ele>
        <time>2018-09-22T15:32:29Z</time>
      </trkpt>
      <trkpt lat="47.52909" lon="-1.33294">
        <ele>36</ele>
        <time>2018-09-22T15:32:31Z</time>
      </trkpt>
      <trkpt lat="47.52913" lon="-1.33308">
        <ele>36</ele>
        <time>2018-09-22T15:32:34Z</time>
      </trkpt>
      <trkpt lat="47.52928" lon="-1.33315">
        <ele>36</ele>
        <time>2018-09-22T15:32:38Z</time>
      </trkpt>
      <trkpt lat="47.52956" lon="-1.33325">
        <ele>37</ele>
        <time>2018-09-22T15:32:44Z</time>
      </trkpt>
      <trkpt lat="47.52964" lon="-1.33329">
        <ele>37</ele>
        <time>2018-09-22T15:32:46Z</time>
      </trkpt>
      <trkpt lat="47.52985" lon="-1.33338">
        <ele>38</ele>
        <time>2018-09-22T15:32:52Z</time>
      </trkpt>
      <trkpt lat="47.52989" lon="-1.3334">
        <ele>38</ele>
        <time>2018-09-22T15:32:53Z</time>
      </trkpt>
      <trkpt lat="47.53006" lon="-1.33346">
        <ele>38</ele>
        <time>2018-09-22T15:32:59Z</time>
      </trkpt>
      <trkpt lat="47.53017" lon="-1.33348">
        <ele>39</ele>
        <time>2018-09-22T15:33:02Z</time>
      </trkpt>
      <trkpt lat="47.53031" lon="-1.33353">
        <ele>39</ele>
        <time>2018-09-22T15:33:06Z</time>
      </trkpt>
      <trkpt lat="47.53044" lon="-1.33357">
        <ele>40</ele>
        <time>2018-09-22T15:33:10Z</time>
      </trkpt>
      <trkpt lat="47.53049" lon="-1.33359">
        <ele>40</ele>
        <time>2018-09-22T15:33:12Z</time>
      </trkpt>
      <trkpt lat="47.53067" lon="-1.33363">
        <ele>41</ele>
        <time>2018-09-22T15:33:18Z</time>
      </trkpt>
      <trkpt lat="47.53075" lon="-1.33365">
        <ele>42</ele>
        <time>2018-09-22T15:33:21Z</time>
      </trkpt>
      <trkpt lat="47.53078" lon="-1.33365">
        <ele>42</ele>
        <time>2018-09-22T15:33:22Z</time>
      </trkpt>
      <trkpt lat="47.53094" lon="-1.33364">
        <ele>43</ele>
        <time>2018-09-22T15:33:28Z</time>
      </trkpt>
      <trkpt lat="47.53099" lon="-1.33362">
        <ele>44</ele>
        <time>2018-09-22T15:33:30Z</time>
      </trkpt>
      <trkpt lat="47.5311" lon="-1.33356">
        <ele>44</ele>
        <time>2018-09-22T15:33:34Z</time>
      </trkpt>
      <trkpt lat="47.53119" lon="-1.33351">
        <ele>45</ele>
        <time>2018-09-22T15:33:38Z</time>
      </trkpt>
      <trkpt lat="47.53123" lon="-1.33349">
        <ele>45</ele>
        <time>2018-09-22T15:33:41Z</time>
      </trkpt>
      <trkpt lat="47.53126" lon="-1.33352">
        <ele>45</ele>
        <time>2018-09-22T15:33:43Z</time>
      </trkpt>
      <trkpt lat="47.53127" lon="-1.33355">
        <ele>45</ele>
        <time>2018-09-22T15:33:44Z</time>
      </trkpt>
      <trkpt lat="47.53137" lon="-1.33367">
        <ele>46</ele>
        <time>2018-09-22T15:33:49Z</time>
      </trkpt>
      <trkpt lat="47.53161" lon="-1.33397">
        <ele>46</ele>
        <time>2018-09-22T15:33:59Z</time>
      </trkpt>
      <trkpt lat="47.53178" lon="-1.33426">
        <ele>46</ele>
        <time>2018-09-22T15:34:07Z</time>
      </trkpt>
      <trkpt lat="47.53192" lon="-1.3345">
        <ele>47</ele>
        <time>2018-09-22T15:34:14Z</time>
      </trkpt>
      <trkpt lat="47.53199" lon="-1.33459">
        <ele>48</ele>
        <time>2018-09-22T15:34:17Z</time>
      </trkpt>
      <trkpt lat="47.53214" lon="-1.3348">
        <ele>48</ele>
        <time>2018-09-22T15:34:24Z</time>
      </trkpt>
      <trkpt lat="47.5322" lon="-1.33491">
        <ele>48</ele>
        <time>2018-09-22T15:34:27Z</time>
      </trkpt>
      <trkpt lat="47.53231" lon="-1.33517">
        <ele>49</ele>
        <time>2018-09-22T15:34:33Z</time>
      </trkpt>
      <trkpt lat="47.53245" lon="-1.33549">
        <ele>50</ele>
        <time>2018-09-22T15:34:40Z</time>
      </trkpt>
      <trkpt lat="47.53253" lon="-1.33567">
        <ele>50</ele>
        <time>2018-09-22T15:34:44Z</time>
      </trkpt>
      <trkpt lat="47.53266" lon="-1.33606">
        <ele>50</ele>
        <time>2018-09-22T15:34:53Z</time>
      </trkpt>
      <trkpt lat="47.5327" lon="-1.33618">
        <ele>51</ele>
        <time>2018-09-22T15:34:56Z</time>
      </trkpt>
      <trkpt lat="47.53279" lon="-1.33649">
        <ele>51</ele>
        <time>2018-09-22T15:35:03Z</time>
      </trkpt>
      <trkpt lat="47.53288" lon="-1.33684">
        <ele>52</ele>
        <time>2018-09-22T15:35:10Z</time>
      </trkpt>
      <trkpt lat="47.53294" lon="-1.33704">
        <ele>53</ele>
        <time>2018-09-22T15:35:14Z</time>
      </trkpt>
      <trkpt lat="47.53303" lon="-1.33733">
        <ele>53</ele>
        <time>2018-09-22T15:35:20Z</time>
      </trkpt>
      <trkpt lat="47.53305" lon="-1.33737">
        <ele>54</ele>
        <time>2018-09-22T15:35:21Z</time>
      </trkpt>
      <trkpt lat="47.5332" lon="-1.33763">
        <ele>54</ele>
        <time>2018-09-22T15:35:28Z</time>
      </trkpt>
      <trkpt lat="47.53346" lon="-1.33782">
        <ele>55</ele>
        <time>2018-09-22T15:35:37Z</time>
      </trkpt>
      <trkpt lat="47.53349" lon="-1.33784">
        <ele>55</ele>
        <time>2018-09-22T15:35:38Z</time>
      </trkpt>
      <trkpt lat="47.53375" lon="-1.33792">
        <ele>56</ele>
        <time>2018-09-22T15:35:46Z</time>
      </trkpt>
      <trkpt lat="47.53378" lon="-1.33794">
        <ele>56</ele>
        <time>2018-09-22T15:35:47Z</time>
      </trkpt>
      <trkpt lat="47.53398" lon="-1.33806">
        <ele>57</ele>
        <time>2018-09-22T15:35:55Z</time>
      </trkpt>
      <trkpt lat="47.53398" lon="-1.33811">
        <ele>57</ele>
        <time>2018-09-22T15:35:57Z</time>
      </trkpt>
      <trkpt lat="47.53396" lon="-1.33816">
        <ele>57</ele>
        <time>2018-09-22T15:36:00Z</time>
      </trkpt>
      <trkpt lat="47.53394" lon="-1.33819">
        <ele>57</ele>
        <time>2018-09-22T15:36:16Z</time>
      </trkpt>
      <trkpt lat="47.53391" lon="-1.33823">
        <ele>57</ele>
        <time>2018-09-22T15:36:18Z</time>
      </trkpt>
      <trkpt lat="47.53378" lon="-1.33841">
        <ele>57</ele>
        <time>2018-09-22T15:36:23Z</time>
      </trkpt>
      <trkpt lat="47.53355" lon="-1.33872">
        <ele>57</ele>
        <time>2018-09-22T15:36:29Z</time>
      </trkpt>
      <trkpt lat="47.53335" lon="-1.33914">
        <ele>56</ele>
        <time>2018-09-22T15:36:35Z</time>
      </trkpt>
      <trkpt lat="47.53315" lon="-1.33968">
        <ele>57</ele>
        <time>2018-09-22T15:36:43Z</time>
      </trkpt>
      <trkpt lat="47.53291" lon="-1.34027">
        <ele>56</ele>
        <time>2018-09-22T15:36:52Z</time>
      </trkpt>
      <trkpt lat="47.53287" lon="-1.34041">
        <ele>56</ele>
        <time>2018-09-22T15:36:54Z</time>
      </trkpt>
      <trkpt lat="47.53283" lon="-1.34065">
        <ele>55</ele>
        <time>2018-09-22T15:36:57Z</time>
      </trkpt>
      <trkpt lat="47.53284" lon="-1.34081">
        <ele>55</ele>
        <time>2018-09-22T15:36:59Z</time>
      </trkpt>
      <trkpt lat="47.53287" lon="-1.34105">
        <ele>55</ele>
        <time>2018-09-22T15:37:02Z</time>
      </trkpt>
      <trkpt lat="47.53292" lon="-1.34129">
        <ele>54</ele>
        <time>2018-09-22T15:37:05Z</time>
      </trkpt>
      <trkpt lat="47.53296" lon="-1.34153">
        <ele>54</ele>
        <time>2018-09-22T15:37:08Z</time>
      </trkpt>
      <trkpt lat="47.53304" lon="-1.34206">
        <ele>53</ele>
        <time>2018-09-22T15:37:15Z</time>
      </trkpt>
      <trkpt lat="47.53306" lon="-1.34213">
        <ele>53</ele>
        <time>2018-09-22T15:37:16Z</time>
      </trkpt>
      <trkpt lat="47.53316" lon="-1.34246">
        <ele>52</ele>
        <time>2018-09-22T15:37:21Z</time>
      </trkpt>
      <trkpt lat="47.53327" lon="-1.34296">
        <ele>52</ele>
        <time>2018-09-22T15:37:29Z</time>
      </trkpt>
      <trkpt lat="47.53336" lon="-1.3433">
        <ele>52</ele>
        <time>2018-09-22T15:37:34Z</time>
      </trkpt>
      <trkpt lat="47.53338" lon="-1.34336">
        <ele>51</ele>
        <time>2018-09-22T15:37:35Z</time>
      </trkpt>
      <trkpt lat="47.53343" lon="-1.3436">
        <ele>51</ele>
        <time>2018-09-22T15:37:39Z</time>
      </trkpt>
      <trkpt lat="47.53345" lon="-1.34372">
        <ele>51</ele>
        <time>2018-09-22T15:37:41Z</time>
      </trkpt>
      <trkpt lat="47.53341" lon="-1.344">
        <ele>51</ele>
        <time>2018-09-22T15:37:46Z</time>
      </trkpt>
      <trkpt lat="47.53338" lon="-1.34412">
        <ele>51</ele>
        <time>2018-09-22T15:37:48Z</time>
      </trkpt>
      <trkpt lat="47.53331" lon="-1.34433">
        <ele>52</ele>
        <time>2018-09-22T15:37:52Z</time>
      </trkpt>
      <trkpt lat="47.53318" lon="-1.34461">
        <ele>52</ele>
        <time>2018-09-22T15:37:58Z</time>
      </trkpt>
      <trkpt lat="47.53302" lon="-1.34501">
        <ele>52</ele>
        <time>2018-09-22T15:38:06Z</time>
      </trkpt>
      <trkpt lat="47.53297" lon="-1.3453">
        <ele>53</ele>
        <time>2018-09-22T15:38:11Z</time>
      </trkpt>
      <trkpt lat="47.53296" lon="-1.34542">
        <ele>53</ele>
        <time>2018-09-22T15:38:13Z</time>
      </trkpt>
      <trkpt lat="47.53288" lon="-1.34605">
        <ele>54</ele>
        <time>2018-09-22T15:38:24Z</time>
      </trkpt>
      <trkpt lat="47.53283" lon="-1.34645">
        <ele>54</ele>
        <time>2018-09-22T15:38:31Z</time>
      </trkpt>
      <trkpt lat="47.5328" lon="-1.34674">
        <ele>52</ele>
        <time>2018-09-22T15:38:36Z</time>
      </trkpt>
      <trkpt lat="47.53278" lon="-1.3469">
        <ele>52</ele>
        <time>2018-09-22T15:38:39Z</time>
      </trkpt>
      <trkpt lat="47.53277" lon="-1.34708">
        <ele>51</ele>
        <time>2018-09-22T15:38:42Z</time>
      </trkpt>
      <trkpt lat="47.53278" lon="-1.34731">
        <ele>52</ele>
        <time>2018-09-22T15:38:46Z</time>
      </trkpt>
      <trkpt lat="47.53285" lon="-1.34779">
        <ele>52</ele>
        <time>2018-09-22T15:38:54Z</time>
      </trkpt>
      <trkpt lat="47.53287" lon="-1.34785">
        <ele>52</ele>
        <time>2018-09-22T15:38:55Z</time>
      </trkpt>
      <trkpt lat="47.53299" lon="-1.34805">
        <ele>52</ele>
        <time>2018-09-22T15:38:59Z</time>
      </trkpt>
      <trkpt lat="47.53314" lon="-1.34812">
        <ele>52</ele>
        <time>2018-09-22T15:39:03Z</time>
      </trkpt>
      <trkpt lat="47.5333" lon="-1.3481">
        <ele>53</ele>
        <time>2018-09-22T15:39:07Z</time>
      </trkpt>
      <trkpt lat="47.53342" lon="-1.34808">
        <ele>53</ele>
        <time>2018-09-22T15:39:10Z</time>
      </trkpt>
      <trkpt lat="47.5335" lon="-1.34806">
        <ele>54</ele>
        <time>2018-09-22T15:39:12Z</time>
      </trkpt>
      <trkpt lat="47.53376" lon="-1.34799">
        <ele>54</ele>
        <time>2018-09-22T15:39:19Z</time>
      </trkpt>
      <trkpt lat="47.5338" lon="-1.34798">
        <ele>55</ele>
        <time>2018-09-22T15:39:20Z</time>
      </trkpt>
      <trkpt lat="47.53415" lon="-1.34789">
        <ele>56</ele>
        <time>2018-09-22T15:39:30Z</time>
      </trkpt>
      <trkpt lat="47.53451" lon="-1.34779">
        <ele>56</ele>
        <time>2018-09-22T15:39:40Z</time>
      </trkpt>
      <trkpt lat="47.53483" lon="-1.34772">
        <ele>56</ele>
        <time>2018-09-22T15:39:49Z</time>
      </trkpt>
      <trkpt lat="47.53513" lon="-1.34764">
        <ele>56</ele>
        <time>2018-09-22T15:39:57Z</time>
      </trkpt>
      <trkpt lat="47.5354" lon="-1.34756">
        <ele>56</ele>
        <time>2018-09-22T15:40:04Z</time>
      </trkpt>
      <trkpt lat="47.53569" lon="-1.34749">
        <ele>56</ele>
        <time>2018-09-22T15:40:11Z</time>
      </trkpt>
      <trkpt lat="47.53601" lon="-1.34739">
        <ele>56</ele>
        <time>2018-09-22T15:40:18Z</time>
      </trkpt>
      <trkpt lat="47.53643" lon="-1.34727">
        <ele>56</ele>
        <time>2018-09-22T15:40:27Z</time>
      </trkpt>
      <trkpt lat="47.53659" lon="-1.34724">
        <ele>56</ele>
        <time>2018-09-22T15:40:32Z</time>
      </trkpt>
      <trkpt lat="47.5366" lon="-1.34726">
        <ele>56</ele>
        <time>2018-09-22T15:40:33Z</time>
      </trkpt>
      <trkpt lat="47.53662" lon="-1.34737">
        <ele>55</ele>
        <time>2018-09-22T15:40:36Z</time>
      </trkpt>
      <trkpt lat="47.53663" lon="-1.34741">
        <ele>55</ele>
        <time>2018-09-22T15:40:37Z</time>
      </trkpt>
      <trkpt lat="47.53666" lon="-1.34767">
        <ele>55</ele>
        <time>2018-09-22T15:40:42Z</time>
      </trkpt>
      <trkpt lat="47.53671" lon="-1.34808">
        <ele>55</ele>
        <time>2018-09-22T15:40:48Z</time>
      </trkpt>
      <trkpt lat="47.53672" lon="-1.34815">
        <ele>54</ele>
        <time>2018-09-22T15:40:49Z</time>
      </trkpt>
      <trkpt lat="47.53677" lon="-1.34853">
        <ele>53</ele>
        <time>2018-09-22T15:40:54Z</time>
      </trkpt>
      <trkpt lat="47.53682" lon="-1.34893">
        <ele>52</ele>
        <time>2018-09-22T15:40:59Z</time>
      </trkpt>
      <trkpt lat="47.53685" lon="-1.34921">
        <ele>52</ele>
        <time>2018-09-22T15:41:03Z</time>
      </trkpt>
      <trkpt lat="47.53685" lon="-1.34926">
        <ele>52</ele>
        <time>2018-09-22T15:41:04Z</time>
      </trkpt>
      <trkpt lat="47.53694" lon="-1.3495">
        <ele>52</ele>
        <time>2018-09-22T15:41:09Z</time>
      </trkpt>
      <trkpt lat="47.53711" lon="-1.34984">
        <ele>53</ele>
        <time>2018-09-22T15:41:16Z</time>
      </trkpt>
      <trkpt lat="47.53722" lon="-1.35008">
        <ele>53</ele>
        <time>2018-09-22T15:41:22Z</time>
      </trkpt>
      <trkpt lat="47.53725" lon="-1.35015">
        <ele>53</ele>
        <time>2018-09-22T15:41:24Z</time>
      </trkpt>
      <trkpt lat="47.53733" lon="-1.35032">
        <ele>54</ele>
        <time>2018-09-22T15:41:29Z</time>
      </trkpt>
      <trkpt lat="47.53743" lon="-1.35054">
        <ele>54</ele>
        <time>2018-09-22T15:41:36Z</time>
      </trkpt>
      <trkpt lat="47.53746" lon="-1.3506">
        <ele>54</ele>
        <time>2018-09-22T15:41:38Z</time>
      </trkpt>
      <trkpt lat="47.53751" lon="-1.35076">
        <ele>55</ele>
        <time>2018-09-22T15:41:44Z</time>
      </trkpt>
      <trkpt lat="47.53757" lon="-1.351">
        <ele>55</ele>
        <time>2018-09-22T15:41:51Z</time>
      </trkpt>
      <trkpt lat="47.5376" lon="-1.35111">
        <ele>55</ele>
        <time>2018-09-22T15:41:54Z</time>
      </trkpt>
      <trkpt lat="47.5376" lon="-1.35118">
        <ele>56</ele>
        <time>2018-09-22T15:41:56Z</time>
      </trkpt>
      <trkpt lat="47.53765" lon="-1.35156">
        <ele>56</ele>
        <time>2018-09-22T15:42:05Z</time>
      </trkpt>
      <trkpt lat="47.53772" lon="-1.35192">
        <ele>56</ele>
        <time>2018-09-22T15:42:12Z</time>
      </trkpt>
      <trkpt lat="47.53775" lon="-1.35217">
        <ele>57</ele>
        <time>2018-09-22T15:42:17Z</time>
      </trkpt>
      <trkpt lat="47.53777" lon="-1.35258">
        <ele>57</ele>
        <time>2018-09-22T15:42:25Z</time>
      </trkpt>
      <trkpt lat="47.53779" lon="-1.3529">
        <ele>57</ele>
        <time>2018-09-22T15:42:31Z</time>
      </trkpt>
      <trkpt lat="47.53779" lon="-1.35329">
        <ele>57</ele>
        <time>2018-09-22T15:42:39Z</time>
      </trkpt>
      <trkpt lat="47.53784" lon="-1.35364">
        <ele>58</ele>
        <time>2018-09-22T15:42:46Z</time>
      </trkpt>
      <trkpt lat="47.53782" lon="-1.35372">
        <ele>58</ele>
        <time>2018-09-22T15:42:48Z</time>
      </trkpt>
      <trkpt lat="47.53777" lon="-1.35376">
        <ele>58</ele>
        <time>2018-09-22T15:42:50Z</time>
      </trkpt>
      <trkpt lat="47.53767" lon="-1.35384">
        <ele>57</ele>
        <time>2018-09-22T15:42:53Z</time>
      </trkpt>
      <trkpt lat="47.53754" lon="-1.35393">
        <ele>57</ele>
        <time>2018-09-22T15:42:57Z</time>
      </trkpt>
      <trkpt lat="47.53727" lon="-1.35412">
        <ele>57</ele>
        <time>2018-09-22T15:43:06Z</time>
      </trkpt>
      <trkpt lat="47.53701" lon="-1.35429">
        <ele>56</ele>
        <time>2018-09-22T15:43:12Z</time>
      </trkpt>
      <trkpt lat="47.53697" lon="-1.35431">
        <ele>56</ele>
        <time>2018-09-22T15:43:13Z</time>
      </trkpt>
      <trkpt lat="47.53676" lon="-1.35445">
        <ele>55</ele>
        <time>2018-09-22T15:43:19Z</time>
      </trkpt>
      <trkpt lat="47.53672" lon="-1.35448">
        <ele>55</ele>
        <time>2018-09-22T15:43:20Z</time>
      </trkpt>
      <trkpt lat="47.53663" lon="-1.35453">
        <ele>55</ele>
        <time>2018-09-22T15:43:22Z</time>
      </trkpt>
      <trkpt lat="47.53652" lon="-1.3546">
        <ele>55</ele>
        <time>2018-09-22T15:43:25Z</time>
      </trkpt>
      <trkpt lat="47.53624" lon="-1.35476">
        <ele>55</ele>
        <time>2018-09-22T15:43:32Z</time>
      </trkpt>
      <trkpt lat="47.53612" lon="-1.3549">
        <ele>55</ele>
        <time>2018-09-22T15:43:36Z</time>
      </trkpt>
      <trkpt lat="47.53612" lon="-1.35495">
        <ele>55</ele>
        <time>2018-09-22T15:43:37Z</time>
      </trkpt>
      <trkpt lat="47.53614" lon="-1.35505">
        <ele>55</ele>
        <time>2018-09-22T15:43:39Z</time>
      </trkpt>
      <trkpt lat="47.53625" lon="-1.35539">
        <ele>55</ele>
        <time>2018-09-22T15:43:47Z</time>
      </trkpt>
      <trkpt lat="47.53629" lon="-1.35561">
        <ele>56</ele>
        <time>2018-09-22T15:43:52Z</time>
      </trkpt>
      <trkpt lat="47.53636" lon="-1.35585">
        <ele>56</ele>
        <time>2018-09-22T15:43:58Z</time>
      </trkpt>
      <trkpt lat="47.53636" lon="-1.35589">
        <ele>57</ele>
        <time>2018-09-22T15:43:59Z</time>
      </trkpt>
      <trkpt lat="47.53643" lon="-1.3561">
        <ele>57</ele>
        <time>2018-09-22T15:44:05Z</time>
      </trkpt>
      <trkpt lat="47.53648" lon="-1.35629">
        <ele>57</ele>
        <time>2018-09-22T15:44:10Z</time>
      </trkpt>
      <trkpt lat="47.5365" lon="-1.3564">
        <ele>57</ele>
        <time>2018-09-22T15:44:13Z</time>
      </trkpt>
      <trkpt lat="47.53655" lon="-1.35655">
        <ele>57</ele>
        <time>2018-09-22T15:44:17Z</time>
      </trkpt>
      <trkpt lat="47.53659" lon="-1.35672">
        <ele>58</ele>
        <time>2018-09-22T15:44:21Z</time>
      </trkpt>
      <trkpt lat="47.53665" lon="-1.35705">
        <ele>58</ele>
        <time>2018-09-22T15:44:29Z</time>
      </trkpt>
      <trkpt lat="47.53671" lon="-1.3573">
        <ele>58</ele>
        <time>2018-09-22T15:44:35Z</time>
      </trkpt>
      <trkpt lat="47.53675" lon="-1.35761">
        <ele>58</ele>
        <time>2018-09-22T15:44:42Z</time>
      </trkpt>
      <trkpt lat="47.53671" lon="-1.35797">
        <ele>58</ele>
        <time>2018-09-22T15:44:50Z</time>
      </trkpt>
      <trkpt lat="47.5367" lon="-1.35825">
        <ele>58</ele>
        <time>2018-09-22T15:44:57Z</time>
      </trkpt>
      <trkpt lat="47.53672" lon="-1.35855">
        <ele>58</ele>
        <time>2018-09-22T15:45:04Z</time>
      </trkpt>
      <trkpt lat="47.53678" lon="-1.35884">
        <ele>58</ele>
        <time>2018-09-22T15:45:11Z</time>
      </trkpt>
      <trkpt lat="47.53688" lon="-1.35912">
        <ele>58</ele>
        <time>2018-09-22T15:45:18Z</time>
      </trkpt>
      <trkpt lat="47.53701" lon="-1.35943">
        <ele>58</ele>
        <time>2018-09-22T15:45:25Z</time>
      </trkpt>
      <trkpt lat="47.53716" lon="-1.35982">
        <ele>58</ele>
        <time>2018-09-22T15:45:34Z</time>
      </trkpt>
      <trkpt lat="47.53723" lon="-1.36">
        <ele>58</ele>
        <time>2018-09-22T15:45:40Z</time>
      </trkpt>
      <trkpt lat="47.53732" lon="-1.36006">
        <ele>58</ele>
        <time>2018-09-22T15:47:19Z</time>
      </trkpt>
      <trkpt lat="47.53733" lon="-1.36009">
        <ele>58</ele>
        <time>2018-09-22T15:47:20Z</time>
      </trkpt>
      <trkpt lat="47.53734" lon="-1.36013">
        <ele>58</ele>
        <time>2018-09-22T15:47:21Z</time>
      </trkpt>
      <trkpt lat="47.53728" lon="-1.36028">
        <ele>58</ele>
        <time>2018-09-22T15:47:25Z</time>
      </trkpt>
      <trkpt lat="47.53726" lon="-1.36032">
        <ele>58</ele>
        <time>2018-09-22T15:47:26Z</time>
      </trkpt>
      <trkpt lat="47.53709" lon="-1.36056">
        <ele>58</ele>
        <time>2018-09-22T15:47:32Z</time>
      </trkpt>
      <trkpt lat="47.53689" lon="-1.36082">
        <ele>58</ele>
        <time>2018-09-22T15:47:38Z</time>
      </trkpt>
      <trkpt lat="47.53686" lon="-1.36087">
        <ele>58</ele>
        <time>2018-09-22T15:47:39Z</time>
      </trkpt>
      <trkpt lat="47.53661" lon="-1.36122">
        <ele>58</ele>
        <time>2018-09-22T15:47:47Z</time>
      </trkpt>
      <trkpt lat="47.53635" lon="-1.36158">
        <ele>58</ele>
        <time>2018-09-22T15:47:55Z</time>
      </trkpt>
      <trkpt lat="47.53615" lon="-1.36185">
        <ele>58</ele>
        <time>2018-09-22T15:48:02Z</time>
      </trkpt>
      <trkpt lat="47.53586" lon="-1.3622">
        <ele>57</ele>
        <time>2018-09-22T15:48:11Z</time>
      </trkpt>
      <trkpt lat="47.5356" lon="-1.36248">
        <ele>57</ele>
        <time>2018-09-22T15:48:18Z</time>
      </trkpt>
      <trkpt lat="47.53551" lon="-1.36256">
        <ele>56</ele>
        <time>2018-09-22T15:48:20Z</time>
      </trkpt>
      <trkpt lat="47.53523" lon="-1.36281">
        <ele>56</ele>
        <time>2018-09-22T15:48:26Z</time>
      </trkpt>
      <trkpt lat="47.53513" lon="-1.36289">
        <ele>55</ele>
        <time>2018-09-22T15:48:28Z</time>
      </trkpt>
      <trkpt lat="47.53484" lon="-1.36315">
        <ele>55</ele>
        <time>2018-09-22T15:48:34Z</time>
      </trkpt>
      <trkpt lat="47.53458" lon="-1.36339">
        <ele>54</ele>
        <time>2018-09-22T15:48:40Z</time>
      </trkpt>
      <trkpt lat="47.53454" lon="-1.36343">
        <ele>54</ele>
        <time>2018-09-22T15:48:41Z</time>
      </trkpt>
      <trkpt lat="47.53432" lon="-1.36364">
        <ele>54</ele>
        <time>2018-09-22T15:48:47Z</time>
      </trkpt>
      <trkpt lat="47.53422" lon="-1.36368">
        <ele>54</ele>
        <time>2018-09-22T15:48:50Z</time>
      </trkpt>
      <trkpt lat="47.53419" lon="-1.36365">
        <ele>53</ele>
        <time>2018-09-22T15:48:51Z</time>
      </trkpt>
      <trkpt lat="47.53413" lon="-1.36355">
        <ele>53</ele>
        <time>2018-09-22T15:48:54Z</time>
      </trkpt>
      <trkpt lat="47.53404" lon="-1.3634">
        <ele>53</ele>
        <time>2018-09-22T15:48:58Z</time>
      </trkpt>
      <trkpt lat="47.53395" lon="-1.3632">
        <ele>53</ele>
        <time>2018-09-22T15:49:04Z</time>
      </trkpt>
      <trkpt lat="47.53386" lon="-1.36307">
        <ele>53</ele>
        <time>2018-09-22T15:49:11Z</time>
      </trkpt>
      <trkpt lat="47.53378" lon="-1.36291">
        <ele>53</ele>
        <time>2018-09-22T15:49:17Z</time>
      </trkpt>
      <trkpt lat="47.53368" lon="-1.36271">
        <ele>54</ele>
        <time>2018-09-22T15:49:23Z</time>
      </trkpt>
      <trkpt lat="47.53355" lon="-1.36247">
        <ele>54</ele>
        <time>2018-09-22T15:49:30Z</time>
      </trkpt>
      <trkpt lat="47.53341" lon="-1.36222">
        <ele>53</ele>
        <time>2018-09-22T15:49:39Z</time>
      </trkpt>
      <trkpt lat="47.53326" lon="-1.36186">
        <ele>54</ele>
        <time>2018-09-22T15:49:48Z</time>
      </trkpt>
      <trkpt lat="47.53315" lon="-1.36154">
        <ele>54</ele>
        <time>2018-09-22T15:49:55Z</time>
      </trkpt>
      <trkpt lat="47.53311" lon="-1.36142">
        <ele>54</ele>
        <time>2018-09-22T15:49:57Z</time>
      </trkpt>
      <trkpt lat="47.53302" lon="-1.3612">
        <ele>55</ele>
        <time>2018-09-22T15:50:02Z</time>
      </trkpt>
      <trkpt lat="47.53293" lon="-1.36099">
        <ele>55</ele>
        <time>2018-09-22T15:50:07Z</time>
      </trkpt>
      <trkpt lat="47.53279" lon="-1.36065">
        <ele>55</ele>
        <time>2018-09-22T15:50:15Z</time>
      </trkpt>
      <trkpt lat="47.53277" lon="-1.36059">
        <ele>55</ele>
        <time>2018-09-22T15:50:16Z</time>
      </trkpt>
      <trkpt lat="47.53265" lon="-1.36031">
        <ele>55</ele>
        <time>2018-09-22T15:50:22Z</time>
      </trkpt>
      <trkpt lat="47.5325" lon="-1.35988">
        <ele>55</ele>
        <time>2018-09-22T15:50:29Z</time>
      </trkpt>
      <trkpt lat="47.53233" lon="-1.35952">
        <ele>55</ele>
        <time>2018-09-22T15:50:36Z</time>
      </trkpt>
      <trkpt lat="47.53224" lon="-1.35943">
        <ele>55</ele>
        <time>2018-09-22T15:50:40Z</time>
      </trkpt>
      <trkpt lat="47.53222" lon="-1.35944">
        <ele>55</ele>
        <time>2018-09-22T15:50:41Z</time>
      </trkpt>
      <trkpt lat="47.5322" lon="-1.35947">
        <ele>54</ele>
        <time>2018-09-22T15:50:58Z</time>
      </trkpt>
      <trkpt lat="47.53219" lon="-1.35949">
        <ele>54</ele>
        <time>2018-09-22T15:50:59Z</time>
      </trkpt>
      <trkpt lat="47.53211" lon="-1.3597">
        <ele>54</ele>
        <time>2018-09-22T15:51:04Z</time>
      </trkpt>
      <trkpt lat="47.53199" lon="-1.36007">
        <ele>54</ele>
        <time>2018-09-22T15:51:10Z</time>
      </trkpt>
      <trkpt lat="47.53187" lon="-1.36041">
        <ele>55</ele>
        <time>2018-09-22T15:51:17Z</time>
      </trkpt>
      <trkpt lat="47.53178" lon="-1.36067">
        <ele>54</ele>
        <time>2018-09-22T15:51:23Z</time>
      </trkpt>
      <trkpt lat="47.53165" lon="-1.36105">
        <ele>54</ele>
        <time>2018-09-22T15:51:31Z</time>
      </trkpt>
      <trkpt lat="47.53151" lon="-1.36144">
        <ele>55</ele>
        <time>2018-09-22T15:51:39Z</time>
      </trkpt>
      <trkpt lat="47.53136" lon="-1.36188">
        <ele>54</ele>
        <time>2018-09-22T15:51:47Z</time>
      </trkpt>
      <trkpt lat="47.53121" lon="-1.36232">
        <ele>55</ele>
        <time>2018-09-22T15:51:55Z</time>
      </trkpt>
      <trkpt lat="47.53104" lon="-1.36277">
        <ele>54</ele>
        <time>2018-09-22T15:52:04Z</time>
      </trkpt>
      <trkpt lat="47.53086" lon="-1.36319">
        <ele>54</ele>
        <time>2018-09-22T15:52:13Z</time>
      </trkpt>
      <trkpt lat="47.53063" lon="-1.36372">
        <ele>55</ele>
        <time>2018-09-22T15:52:24Z</time>
      </trkpt>
      <trkpt lat="47.5304" lon="-1.36421">
        <ele>55</ele>
        <time>2018-09-22T15:52:34Z</time>
      </trkpt>
      <trkpt lat="47.53023" lon="-1.36457">
        <ele>55</ele>
        <time>2018-09-22T15:52:42Z</time>
      </trkpt>
      <trkpt lat="47.53006" lon="-1.36493">
        <ele>56</ele>
        <time>2018-09-22T15:52:50Z</time>
      </trkpt>
      <trkpt lat="47.52991" lon="-1.36528">
        <ele>57</ele>
        <time>2018-09-22T15:52:58Z</time>
      </trkpt>
      <trkpt lat="47.52979" lon="-1.36543">
        <ele>57</ele>
        <time>2018-09-22T15:53:04Z</time>
      </trkpt>
      <trkpt lat="47.52965" lon="-1.36547">
        <ele>57</ele>
        <time>2018-09-22T15:53:10Z</time>
      </trkpt>
      <trkpt lat="47.5294" lon="-1.36552">
        <ele>57</ele>
        <time>2018-09-22T15:53:18Z</time>
      </trkpt>
      <trkpt lat="47.52934" lon="-1.36553">
        <ele>58</ele>
        <time>2018-09-22T15:53:20Z</time>
      </trkpt>
      <trkpt lat="47.52906" lon="-1.3656">
        <ele>58</ele>
        <time>2018-09-22T15:53:28Z</time>
      </trkpt>
      <trkpt lat="47.52902" lon="-1.36561">
        <ele>58</ele>
        <time>2018-09-22T15:53:29Z</time>
      </trkpt>
      <trkpt lat="47.52866" lon="-1.36569">
        <ele>59</ele>
        <time>2018-09-22T15:53:37Z</time>
      </trkpt>
      <trkpt lat="47.52857" lon="-1.3657">
        <ele>60</ele>
        <time>2018-09-22T15:53:39Z</time>
      </trkpt>
      <trkpt lat="47.52837" lon="-1.36575">
        <ele>60</ele>
        <time>2018-09-22T15:53:44Z</time>
      </trkpt>
      <trkpt lat="47.52819" lon="-1.36579">
        <ele>61</ele>
        <time>2018-09-22T15:53:50Z</time>
      </trkpt>
      <trkpt lat="47.52801" lon="-1.36583">
        <ele>61</ele>
        <time>2018-09-22T15:53:57Z</time>
      </trkpt>
      <trkpt lat="47.52796" lon="-1.36584">
        <ele>62</ele>
        <time>2018-09-22T15:53:59Z</time>
      </trkpt>
      <trkpt lat="47.52776" lon="-1.36589">
        <ele>62</ele>
        <time>2018-09-22T15:54:06Z</time>
      </trkpt>
      <trkpt lat="47.52767" lon="-1.36591">
        <ele>63</ele>
        <time>2018-09-22T15:54:09Z</time>
      </trkpt>
      <trkpt lat="47.52751" lon="-1.36595">
        <ele>63</ele>
        <time>2018-09-22T15:54:14Z</time>
      </trkpt>
      <trkpt lat="47.52737" lon="-1.36597">
        <ele>64</ele>
        <time>2018-09-22T15:54:18Z</time>
      </trkpt>
      <trkpt lat="47.52728" lon="-1.36599">
        <ele>64</ele>
        <time>2018-09-22T15:54:21Z</time>
      </trkpt>
      <trkpt lat="47.52697" lon="-1.36605">
        <ele>64</ele>
        <time>2018-09-22T15:54:30Z</time>
      </trkpt>
      <trkpt lat="47.52684" lon="-1.36608">
        <ele>64</ele>
        <time>2018-09-22T15:54:35Z</time>
      </trkpt>
      <trkpt lat="47.52682" lon="-1.3661">
        <ele>65</ele>
        <time>2018-09-22T15:55:32Z</time>
      </trkpt>
      <trkpt lat="47.5268" lon="-1.36614">
        <ele>65</ele>
        <time>2018-09-22T15:55:34Z</time>
      </trkpt>
      <trkpt lat="47.52677" lon="-1.36628">
        <ele>65</ele>
        <time>2018-09-22T15:55:41Z</time>
      </trkpt>
      <trkpt lat="47.52673" lon="-1.36643">
        <ele>65</ele>
        <time>2018-09-22T15:55:46Z</time>
      </trkpt>
      <trkpt lat="47.52661" lon="-1.36674">
        <ele>64</ele>
        <time>2018-09-22T15:55:53Z</time>
      </trkpt>
      <trkpt lat="47.5265" lon="-1.36693">
        <ele>64</ele>
        <time>2018-09-22T15:55:57Z</time>
      </trkpt>
      <trkpt lat="47.52643" lon="-1.36702">
        <ele>64</ele>
        <time>2018-09-22T15:55:59Z</time>
      </trkpt>
      <trkpt lat="47.52619" lon="-1.36731">
        <ele>63</ele>
        <time>2018-09-22T15:56:05Z</time>
      </trkpt>
      <trkpt lat="47.52615" lon="-1.36736">
        <ele>62</ele>
        <time>2018-09-22T15:56:06Z</time>
      </trkpt>
      <trkpt lat="47.52603" lon="-1.36752">
        <ele>62</ele>
        <time>2018-09-22T15:56:09Z</time>
      </trkpt>
      <trkpt lat="47.52582" lon="-1.36782">
        <ele>60</ele>
        <time>2018-09-22T15:56:14Z</time>
      </trkpt>
      <trkpt lat="47.5256" lon="-1.36822">
        <ele>59</ele>
        <time>2018-09-22T15:56:20Z</time>
      </trkpt>
      <trkpt lat="47.52557" lon="-1.36829">
        <ele>59</ele>
        <time>2018-09-22T15:56:21Z</time>
      </trkpt>
      <trkpt lat="47.52549" lon="-1.36847">
        <ele>59</ele>
        <time>2018-09-22T15:56:24Z</time>
      </trkpt>
      <trkpt lat="47.52542" lon="-1.36852">
        <ele>58</ele>
        <time>2018-09-22T15:56:26Z</time>
      </trkpt>
      <trkpt lat="47.52523" lon="-1.36853">
        <ele>57</ele>
        <time>2018-09-22T15:56:30Z</time>
      </trkpt>
      <trkpt lat="47.52518" lon="-1.36852">
        <ele>57</ele>
        <time>2018-09-22T15:56:31Z</time>
      </trkpt>
      <trkpt lat="47.52502" lon="-1.36848">
        <ele>56</ele>
        <time>2018-09-22T15:56:34Z</time>
      </trkpt>
      <trkpt lat="47.52486" lon="-1.36845">
        <ele>55</ele>
        <time>2018-09-22T15:56:37Z</time>
      </trkpt>
      <trkpt lat="47.52481" lon="-1.36844">
        <ele>54</ele>
        <time>2018-09-22T15:56:38Z</time>
      </trkpt>
      <trkpt lat="47.52475" lon="-1.36843">
        <ele>54</ele>
        <time>2018-09-22T15:56:39Z</time>
      </trkpt>
      <trkpt lat="47.52465" lon="-1.36841">
        <ele>52</ele>
        <time>2018-09-22T15:56:41Z</time>
      </trkpt>
      <trkpt lat="47.52451" lon="-1.36839">
        <ele>51</ele>
        <time>2018-09-22T15:56:44Z</time>
      </trkpt>
      <trkpt lat="47.52436" lon="-1.36837">
        <ele>50</ele>
        <time>2018-09-22T15:56:47Z</time>
      </trkpt>
      <trkpt lat="47.52411" lon="-1.36833">
        <ele>50</ele>
        <time>2018-09-22T15:56:52Z</time>
      </trkpt>
      <trkpt lat="47.52386" lon="-1.3683">
        <ele>49</ele>
        <time>2018-09-22T15:56:57Z</time>
      </trkpt>
      <trkpt lat="47.5238" lon="-1.36829">
        <ele>48</ele>
        <time>2018-09-22T15:56:58Z</time>
      </trkpt>
      <trkpt lat="47.5237" lon="-1.36828">
        <ele>48</ele>
        <time>2018-09-22T15:57:00Z</time>
      </trkpt>
      <trkpt lat="47.52333" lon="-1.36821">
        <ele>46</ele>
        <time>2018-09-22T15:57:07Z</time>
      </trkpt>
      <trkpt lat="47.52322" lon="-1.3682">
        <ele>45</ele>
        <time>2018-09-22T15:57:09Z</time>
      </trkpt>
      <trkpt lat="47.52306" lon="-1.36817">
        <ele>44</ele>
        <time>2018-09-22T15:57:12Z</time>
      </trkpt>
      <trkpt lat="47.52279" lon="-1.36813">
        <ele>43</ele>
        <time>2018-09-22T15:57:17Z</time>
      </trkpt>
      <trkpt lat="47.52262" lon="-1.3681">
        <ele>43</ele>
        <time>2018-09-22T15:57:20Z</time>
      </trkpt>
      <trkpt lat="47.52239" lon="-1.36806">
        <ele>42</ele>
        <time>2018-09-22T15:57:24Z</time>
      </trkpt>
      <trkpt lat="47.52221" lon="-1.36803">
        <ele>41</ele>
        <time>2018-09-22T15:57:27Z</time>
      </trkpt>
      <trkpt lat="47.52203" lon="-1.368">
        <ele>40</ele>
        <time>2018-09-22T15:57:30Z</time>
      </trkpt>
      <trkpt lat="47.52167" lon="-1.36795">
        <ele>39</ele>
        <time>2018-09-22T15:57:36Z</time>
      </trkpt>
      <trkpt lat="47.52163" lon="-1.36794">
        <ele>39</ele>
        <time>2018-09-22T15:57:37Z</time>
      </trkpt>
      <trkpt lat="47.52151" lon="-1.36793">
        <ele>38</ele>
        <time>2018-09-22T15:57:40Z</time>
      </trkpt>
      <trkpt lat="47.52148" lon="-1.36793">
        <ele>37</ele>
        <time>2018-09-22T15:57:41Z</time>
      </trkpt>
      <trkpt lat="47.52142" lon="-1.36792">
        <ele>37</ele>
        <time>2018-09-22T15:57:43Z</time>
      </trkpt>
      <trkpt lat="47.52138" lon="-1.36795">
        <ele>36</ele>
        <time>2018-09-22T15:57:45Z</time>
      </trkpt>
      <trkpt lat="47.52137" lon="-1.36797">
        <ele>36</ele>
        <time>2018-09-22T15:57:46Z</time>
      </trkpt>
      <trkpt lat="47.52137" lon="-1.36806">
        <ele>36</ele>
        <time>2018-09-22T15:57:49Z</time>
      </trkpt>
      <trkpt lat="47.52137" lon="-1.36811">
        <ele>36</ele>
        <time>2018-09-22T15:57:50Z</time>
      </trkpt>
      <trkpt lat="47.52139" lon="-1.36835">
        <ele>36</ele>
        <time>2018-09-22T15:57:55Z</time>
      </trkpt>
      <trkpt lat="47.5214" lon="-1.36839">
        <ele>36</ele>
        <time>2018-09-22T15:57:56Z</time>
      </trkpt>
      <trkpt lat="47.52142" lon="-1.36876">
        <ele>36</ele>
        <time>2018-09-22T15:58:03Z</time>
      </trkpt>
      <trkpt lat="47.52144" lon="-1.36906">
        <ele>36</ele>
        <time>2018-09-22T15:58:09Z</time>
      </trkpt>
      <trkpt lat="47.52141" lon="-1.36941">
        <ele>36</ele>
        <time>2018-09-22T15:58:17Z</time>
      </trkpt>
      <trkpt lat="47.5213" lon="-1.36964">
        <ele>36</ele>
        <time>2018-09-22T15:58:24Z</time>
      </trkpt>
      <trkpt lat="47.52118" lon="-1.36995">
        <ele>36</ele>
        <time>2018-09-22T15:58:31Z</time>
      </trkpt>
      <trkpt lat="47.52114" lon="-1.37029">
        <ele>36</ele>
        <time>2018-09-22T15:58:37Z</time>
      </trkpt>
      <trkpt lat="47.52112" lon="-1.37074">
        <ele>36</ele>
        <time>2018-09-22T15:58:45Z</time>
      </trkpt>
      <trkpt lat="47.5211" lon="-1.37121">
        <ele>36</ele>
        <time>2018-09-22T15:58:53Z</time>
      </trkpt>
      <trkpt lat="47.52104" lon="-1.37147">
        <ele>36</ele>
        <time>2018-09-22T15:58:58Z</time>
      </trkpt>
      <trkpt lat="47.52102" lon="-1.37181">
        <ele>36</ele>
        <time>2018-09-22T15:59:04Z</time>
      </trkpt>
      <trkpt lat="47.52101" lon="-1.37222">
        <ele>37</ele>
        <time>2018-09-22T15:59:12Z</time>
      </trkpt>
      <trkpt lat="47.52101" lon="-1.3726">
        <ele>37</ele>
        <time>2018-09-22T15:59:21Z</time>
      </trkpt>
      <trkpt lat="47.52101" lon="-1.37265">
        <ele>37</ele>
        <time>2018-09-22T15:59:55Z</time>
      </trkpt>
      <trkpt lat="47.52101" lon="-1.3727">
        <ele>37</ele>
        <time>2018-09-22T15:59:56Z</time>
      </trkpt>
      <trkpt lat="47.52092" lon="-1.37299">
        <ele>37</ele>
        <time>2018-09-22T16:00:02Z</time>
      </trkpt>
      <trkpt lat="47.52085" lon="-1.37316">
        <ele>37</ele>
        <time>2018-09-22T16:00:08Z</time>
      </trkpt>
      <trkpt lat="47.52075" lon="-1.37339">
        <ele>37</ele>
        <time>2018-09-22T16:00:16Z</time>
      </trkpt>
      <trkpt lat="47.52068" lon="-1.37354">
        <ele>38</ele>
        <time>2018-09-22T16:00:20Z</time>
      </trkpt>
      <trkpt lat="47.5206" lon="-1.37374">
        <ele>38</ele>
        <time>2018-09-22T16:00:25Z</time>
      </trkpt>
      <trkpt lat="47.52048" lon="-1.374">
        <ele>38</ele>
        <time>2018-09-22T16:00:33Z</time>
      </trkpt>
      <trkpt lat="47.52036" lon="-1.37427">
        <ele>38</ele>
        <time>2018-09-22T16:00:41Z</time>
      </trkpt>
      <trkpt lat="47.52023" lon="-1.37457">
        <ele>38</ele>
        <time>2018-09-22T16:00:50Z</time>
      </trkpt>
      <trkpt lat="47.52007" lon="-1.37491">
        <ele>37</ele>
        <time>2018-09-22T16:01:00Z</time>
      </trkpt>
      <trkpt lat="47.51991" lon="-1.37528">
        <ele>37</ele>
        <time>2018-09-22T16:01:10Z</time>
      </trkpt>
      <trkpt lat="47.51979" lon="-1.37556">
        <ele>37</ele>
        <time>2018-09-22T16:01:19Z</time>
      </trkpt>
      <trkpt lat="47.51971" lon="-1.37572">
        <ele>37</ele>
        <time>2018-09-22T16:01:30Z</time>
      </trkpt>
      <trkpt lat="47.51969" lon="-1.37576">
        <ele>37</ele>
        <time>2018-09-22T16:01:32Z</time>
      </trkpt>
      <trkpt lat="47.51965" lon="-1.37579">
        <ele>37</ele>
        <time>2018-09-22T16:01:34Z</time>
      </trkpt>
      <trkpt lat="47.51957" lon="-1.37577">
        <ele>37</ele>
        <time>2018-09-22T16:01:37Z</time>
      </trkpt>
      <trkpt lat="47.51951" lon="-1.37576">
        <ele>37</ele>
        <time>2018-09-22T16:01:39Z</time>
      </trkpt>
      <trkpt lat="47.5194" lon="-1.37573">
        <ele>37</ele>
        <time>2018-09-22T16:01:43Z</time>
      </trkpt>
      <trkpt lat="47.51918" lon="-1.37571">
        <ele>37</ele>
        <time>2018-09-22T16:01:51Z</time>
      </trkpt>
      <trkpt lat="47.51896" lon="-1.37567">
        <ele>38</ele>
        <time>2018-09-22T16:01:59Z</time>
      </trkpt>
      <trkpt lat="47.51873" lon="-1.37565">
        <ele>38</ele>
        <time>2018-09-22T16:02:07Z</time>
      </trkpt>
      <trkpt lat="47.51849" lon="-1.37562">
        <ele>39</ele>
        <time>2018-09-22T16:02:15Z</time>
      </trkpt>
      <trkpt lat="47.51846" lon="-1.37562">
        <ele>39</ele>
        <time>2018-09-22T16:02:16Z</time>
      </trkpt>
      <trkpt lat="47.51823" lon="-1.37559">
        <ele>39</ele>
        <time>2018-09-22T16:02:22Z</time>
      </trkpt>
      <trkpt lat="47.51806" lon="-1.37559">
        <ele>40</ele>
        <time>2018-09-22T16:02:27Z</time>
      </trkpt>
      <trkpt lat="47.518" lon="-1.37557">
        <ele>40</ele>
        <time>2018-09-22T16:02:29Z</time>
      </trkpt>
      <trkpt lat="47.51785" lon="-1.37554">
        <ele>41</ele>
        <time>2018-09-22T16:02:34Z</time>
      </trkpt>
      <trkpt lat="47.51782" lon="-1.37554">
        <ele>41</ele>
        <time>2018-09-22T16:02:35Z</time>
      </trkpt>
      <trkpt lat="47.51775" lon="-1.37553">
        <ele>42</ele>
        <time>2018-09-22T16:02:38Z</time>
      </trkpt>
      <trkpt lat="47.51765" lon="-1.37552">
        <ele>43</ele>
        <time>2018-09-22T16:02:42Z</time>
      </trkpt>
      <trkpt lat="47.51751" lon="-1.37548">
        <ele>44</ele>
        <time>2018-09-22T16:02:47Z</time>
      </trkpt>
      <trkpt lat="47.51743" lon="-1.37547">
        <ele>45</ele>
        <time>2018-09-22T16:02:50Z</time>
      </trkpt>
      <trkpt lat="47.51736" lon="-1.37547">
        <ele>45</ele>
        <time>2018-09-22T16:02:53Z</time>
      </trkpt>
      <trkpt lat="47.51724" lon="-1.37548">
        <ele>46</ele>
        <time>2018-09-22T16:02:57Z</time>
      </trkpt>
      <trkpt lat="47.51722" lon="-1.37548">
        <ele>47</ele>
        <time>2018-09-22T16:02:58Z</time>
      </trkpt>
      <trkpt lat="47.51712" lon="-1.37547">
        <ele>48</ele>
        <time>2018-09-22T16:03:02Z</time>
      </trkpt>
      <trkpt lat="47.51709" lon="-1.37546">
        <ele>48</ele>
        <time>2018-09-22T16:03:03Z</time>
      </trkpt>
      <trkpt lat="47.51688" lon="-1.37542">
        <ele>49</ele>
        <time>2018-09-22T16:03:11Z</time>
      </trkpt>
      <trkpt lat="47.51685" lon="-1.37542">
        <ele>49</ele>
        <time>2018-09-22T16:03:12Z</time>
      </trkpt>
      <trkpt lat="47.51663" lon="-1.37538">
        <ele>50</ele>
        <time>2018-09-22T16:03:20Z</time>
      </trkpt>
      <trkpt lat="47.51646" lon="-1.37535">
        <ele>51</ele>
        <time>2018-09-22T16:03:26Z</time>
      </trkpt>
      <trkpt lat="47.51643" lon="-1.37535">
        <ele>51</ele>
        <time>2018-09-22T16:03:27Z</time>
      </trkpt>
      <trkpt lat="47.5162" lon="-1.37531">
        <ele>52</ele>
        <time>2018-09-22T16:03:34Z</time>
      </trkpt>
      <trkpt lat="47.51606" lon="-1.3753">
        <ele>53</ele>
        <time>2018-09-22T16:03:38Z</time>
      </trkpt>
      <trkpt lat="47.51603" lon="-1.37529">
        <ele>53</ele>
        <time>2018-09-22T16:03:39Z</time>
      </trkpt>
      <trkpt lat="47.51586" lon="-1.37527">
        <ele>54</ele>
        <time>2018-09-22T16:03:44Z</time>
      </trkpt>
      <trkpt lat="47.51576" lon="-1.37525">
        <ele>54</ele>
        <time>2018-09-22T16:03:47Z</time>
      </trkpt>
      <trkpt lat="47.51543" lon="-1.37521">
        <ele>55</ele>
        <time>2018-09-22T16:03:58Z</time>
      </trkpt>
      <trkpt lat="47.51533" lon="-1.37521">
        <ele>55</ele>
        <time>2018-09-22T16:07:22Z</time>
      </trkpt>
      <trkpt lat="47.5153" lon="-1.37516">
        <ele>55</ele>
        <time>2018-09-22T16:07:24Z</time>
      </trkpt>
      <trkpt lat="47.51525" lon="-1.37493">
        <ele>54</ele>
        <time>2018-09-22T16:07:29Z</time>
      </trkpt>
      <trkpt lat="47.51519" lon="-1.37463">
        <ele>53</ele>
        <time>2018-09-22T16:07:34Z</time>
      </trkpt>
      <trkpt lat="47.51515" lon="-1.3745">
        <ele>52</ele>
        <time>2018-09-22T16:07:36Z</time>
      </trkpt>
      <trkpt lat="47.51505" lon="-1.37412">
        <ele>52</ele>
        <time>2018-09-22T16:07:41Z</time>
      </trkpt>
      <trkpt lat="47.51503" lon="-1.37404">
        <ele>52</ele>
        <time>2018-09-22T16:07:42Z</time>
      </trkpt>
      <trkpt lat="47.51497" lon="-1.37377">
        <ele>51</ele>
        <time>2018-09-22T16:07:45Z</time>
      </trkpt>
      <trkpt lat="47.51496" lon="-1.37351">
        <ele>51</ele>
        <time>2018-09-22T16:07:48Z</time>
      </trkpt>
      <trkpt lat="47.51495" lon="-1.37314">
        <ele>50</ele>
        <time>2018-09-22T16:07:52Z</time>
      </trkpt>
      <trkpt lat="47.51494" lon="-1.37305">
        <ele>49</ele>
        <time>2018-09-22T16:07:53Z</time>
      </trkpt>
      <trkpt lat="47.51492" lon="-1.37296">
        <ele>49</ele>
        <time>2018-09-22T16:07:54Z</time>
      </trkpt>
      <trkpt lat="47.51489" lon="-1.37288">
        <ele>48</ele>
        <time>2018-09-22T16:07:55Z</time>
      </trkpt>
      <trkpt lat="47.5148" lon="-1.37265">
        <ele>47</ele>
        <time>2018-09-22T16:07:58Z</time>
      </trkpt>
      <trkpt lat="47.51476" lon="-1.37258">
        <ele>46</ele>
        <time>2018-09-22T16:07:59Z</time>
      </trkpt>
      <trkpt lat="47.51471" lon="-1.37253">
        <ele>45</ele>
        <time>2018-09-22T16:08:00Z</time>
      </trkpt>
      <trkpt lat="47.51461" lon="-1.37243">
        <ele>44</ele>
        <time>2018-09-22T16:08:02Z</time>
      </trkpt>
      <trkpt lat="47.51455" lon="-1.37238">
        <ele>43</ele>
        <time>2018-09-22T16:08:03Z</time>
      </trkpt>
      <trkpt lat="47.51448" lon="-1.37233">
        <ele>43</ele>
        <time>2018-09-22T16:08:04Z</time>
      </trkpt>
      <trkpt lat="47.51442" lon="-1.37229">
        <ele>42</ele>
        <time>2018-09-22T16:08:05Z</time>
      </trkpt>
      <trkpt lat="47.51428" lon="-1.37222">
        <ele>41</ele>
        <time>2018-09-22T16:08:07Z</time>
      </trkpt>
      <trkpt lat="47.51407" lon="-1.37215">
        <ele>40</ele>
        <time>2018-09-22T16:08:10Z</time>
      </trkpt>
      <trkpt lat="47.51395" lon="-1.37213">
        <ele>38</ele>
        <time>2018-09-22T16:08:12Z</time>
      </trkpt>
      <trkpt lat="47.51384" lon="-1.37211">
        <ele>37</ele>
        <time>2018-09-22T16:08:14Z</time>
      </trkpt>
      <trkpt lat="47.51373" lon="-1.37207">
        <ele>36</ele>
        <time>2018-09-22T16:08:16Z</time>
      </trkpt>
      <trkpt lat="47.51369" lon="-1.37205">
        <ele>36</ele>
        <time>2018-09-22T16:08:17Z</time>
      </trkpt>
      <trkpt lat="47.51359" lon="-1.372">
        <ele>35</ele>
        <time>2018-09-22T16:08:19Z</time>
      </trkpt>
      <trkpt lat="47.51343" lon="-1.37192">
        <ele>33</ele>
        <time>2018-09-22T16:08:22Z</time>
      </trkpt>
      <trkpt lat="47.51333" lon="-1.37186">
        <ele>32</ele>
        <time>2018-09-22T16:08:24Z</time>
      </trkpt>
      <trkpt lat="47.51322" lon="-1.37178">
        <ele>31</ele>
        <time>2018-09-22T16:08:26Z</time>
      </trkpt>
      <trkpt lat="47.51307" lon="-1.37167">
        <ele>29</ele>
        <time>2018-09-22T16:08:29Z</time>
      </trkpt>
      <trkpt lat="47.51299" lon="-1.37159">
        <ele>28</ele>
        <time>2018-09-22T16:08:31Z</time>
      </trkpt>
      <trkpt lat="47.51295" lon="-1.37155">
        <ele>28</ele>
        <time>2018-09-22T16:08:32Z</time>
      </trkpt>
      <trkpt lat="47.51284" lon="-1.37138">
        <ele>28</ele>
        <time>2018-09-22T16:08:37Z</time>
      </trkpt>
      <trkpt lat="47.51288" lon="-1.37129">
        <ele>28</ele>
        <time>2018-09-22T16:08:40Z</time>
      </trkpt>
      <trkpt lat="47.51304" lon="-1.3712">
        <ele>28</ele>
        <time>2018-09-22T16:08:46Z</time>
      </trkpt>
      <trkpt lat="47.51307" lon="-1.37119">
        <ele>28</ele>
        <time>2018-09-22T16:08:47Z</time>
      </trkpt>
      <trkpt lat="47.51333" lon="-1.37109">
        <ele>29</ele>
        <time>2018-09-22T16:08:55Z</time>
      </trkpt>
      <trkpt lat="47.51357" lon="-1.371">
        <ele>29</ele>
        <time>2018-09-22T16:09:02Z</time>
      </trkpt>
      <trkpt lat="47.51364" lon="-1.37099">
        <ele>29</ele>
        <time>2018-09-22T16:09:04Z</time>
      </trkpt>
      <trkpt lat="47.51377" lon="-1.37095">
        <ele>30</ele>
        <time>2018-09-22T16:09:08Z</time>
      </trkpt>
      <trkpt lat="47.51392" lon="-1.3709">
        <ele>30</ele>
        <time>2018-09-22T16:09:13Z</time>
      </trkpt>
      <trkpt lat="47.51399" lon="-1.37088">
        <ele>31</ele>
        <time>2018-09-22T16:09:16Z</time>
      </trkpt>
      <trkpt lat="47.51405" lon="-1.37086">
        <ele>32</ele>
        <time>2018-09-22T16:09:19Z</time>
      </trkpt>
      <trkpt lat="47.51416" lon="-1.37084">
        <ele>32</ele>
        <time>2018-09-22T16:09:23Z</time>
      </trkpt>
      <trkpt lat="47.51426" lon="-1.3708">
        <ele>33</ele>
        <time>2018-09-22T16:09:27Z</time>
      </trkpt>
      <trkpt lat="47.51435" lon="-1.37077">
        <ele>34</ele>
        <time>2018-09-22T16:09:31Z</time>
      </trkpt>
      <trkpt lat="47.51438" lon="-1.37076">
        <ele>34</ele>
        <time>2018-09-22T16:09:32Z</time>
      </trkpt>
      <trkpt lat="47.51453" lon="-1.3707">
        <ele>35</ele>
        <time>2018-09-22T16:09:39Z</time>
      </trkpt>
      <trkpt lat="47.51455" lon="-1.37069">
        <ele>35</ele>
        <time>2018-09-22T16:09:40Z</time>
      </trkpt>
      <trkpt lat="47.51463" lon="-1.37064">
        <ele>36</ele>
        <time>2018-09-22T16:09:44Z</time>
      </trkpt>
      <trkpt lat="47.5147" lon="-1.3706">
        <ele>37</ele>
        <time>2018-09-22T16:09:47Z</time>
      </trkpt>
      <trkpt lat="47.51479" lon="-1.37055">
        <ele>37</ele>
        <time>2018-09-22T16:09:51Z</time>
      </trkpt>
      <trkpt lat="47.51485" lon="-1.37052">
        <ele>37</ele>
        <time>2018-09-22T16:09:54Z</time>
      </trkpt>
      <trkpt lat="47.51497" lon="-1.37044">
        <ele>38</ele>
        <time>2018-09-22T16:10:00Z</time>
      </trkpt>
      <trkpt lat="47.51502" lon="-1.37041">
        <ele>39</ele>
        <time>2018-09-22T16:10:02Z</time>
      </trkpt>
      <trkpt lat="47.51508" lon="-1.37037">
        <ele>39</ele>
        <time>2018-09-22T16:10:05Z</time>
      </trkpt>
      <trkpt lat="47.51518" lon="-1.37031">
        <ele>40</ele>
        <time>2018-09-22T16:10:09Z</time>
      </trkpt>
      <trkpt lat="47.5152" lon="-1.37029">
        <ele>40</ele>
        <time>2018-09-22T16:10:10Z</time>
      </trkpt>
      <trkpt lat="47.51533" lon="-1.3702">
        <ele>41</ele>
        <time>2018-09-22T16:10:15Z</time>
      </trkpt>
      <trkpt lat="47.51535" lon="-1.37018">
        <ele>41</ele>
        <time>2018-09-22T16:10:16Z</time>
      </trkpt>
      <trkpt lat="47.51543" lon="-1.37005">
        <ele>42</ele>
        <time>2018-09-22T16:10:21Z</time>
      </trkpt>
      <trkpt lat="47.51544" lon="-1.36997">
        <ele>43</ele>
        <time>2018-09-22T16:10:24Z</time>
      </trkpt>
      <trkpt lat="47.51545" lon="-1.36994">
        <ele>44</ele>
        <time>2018-09-22T16:10:25Z</time>
      </trkpt>
      <trkpt lat="47.51546" lon="-1.36982">
        <ele>45</ele>
        <time>2018-09-22T16:10:30Z</time>
      </trkpt>
      <trkpt lat="47.51547" lon="-1.36973">
        <ele>45</ele>
        <time>2018-09-22T16:10:33Z</time>
      </trkpt>
      <trkpt lat="47.51547" lon="-1.36964">
        <ele>46</ele>
        <time>2018-09-22T16:10:36Z</time>
      </trkpt>
      <trkpt lat="47.51547" lon="-1.36952">
        <ele>47</ele>
        <time>2018-09-22T16:10:40Z</time>
      </trkpt>
      <trkpt lat="47.51547" lon="-1.36946">
        <ele>47</ele>
        <time>2018-09-22T16:10:42Z</time>
      </trkpt>
      <trkpt lat="47.51547" lon="-1.36928">
        <ele>48</ele>
        <time>2018-09-22T16:10:48Z</time>
      </trkpt>
      <trkpt lat="47.51547" lon="-1.36923">
        <ele>49</ele>
        <time>2018-09-22T16:10:50Z</time>
      </trkpt>
      <trkpt lat="47.51547" lon="-1.36914">
        <ele>49</ele>
        <time>2018-09-22T16:10:53Z</time>
      </trkpt>
      <trkpt lat="47.51547" lon="-1.36902">
        <ele>50</ele>
        <time>2018-09-22T16:10:57Z</time>
      </trkpt>
      <trkpt lat="47.51546" lon="-1.36899">
        <ele>51</ele>
        <time>2018-09-22T16:10:58Z</time>
      </trkpt>
      <trkpt lat="47.51546" lon="-1.3688">
        <ele>51</ele>
        <time>2018-09-22T16:11:04Z</time>
      </trkpt>
      <trkpt lat="47.51546" lon="-1.36866">
        <ele>52</ele>
        <time>2018-09-22T16:11:08Z</time>
      </trkpt>
      <trkpt lat="47.51545" lon="-1.36856">
        <ele>52</ele>
        <time>2018-09-22T16:11:11Z</time>
      </trkpt>
      <trkpt lat="47.51545" lon="-1.36834">
        <ele>53</ele>
        <time>2018-09-22T16:11:18Z</time>
      </trkpt>
      <trkpt lat="47.51545" lon="-1.36831">
        <ele>54</ele>
        <time>2018-09-22T16:11:19Z</time>
      </trkpt>
      <trkpt lat="47.51544" lon="-1.36811">
        <ele>55</ele>
        <time>2018-09-22T16:11:26Z</time>
      </trkpt>
      <trkpt lat="47.51543" lon="-1.36808">
        <ele>55</ele>
        <time>2018-09-22T16:11:27Z</time>
      </trkpt>
      <trkpt lat="47.51542" lon="-1.36788">
        <ele>55</ele>
        <time>2018-09-22T16:11:34Z</time>
      </trkpt>
      <trkpt lat="47.51539" lon="-1.36761">
        <ele>55</ele>
        <time>2018-09-22T16:11:42Z</time>
      </trkpt>
      <trkpt lat="47.51538" lon="-1.36754">
        <ele>56</ele>
        <time>2018-09-22T16:11:44Z</time>
      </trkpt>
      <trkpt lat="47.51537" lon="-1.3674">
        <ele>56</ele>
        <time>2018-09-22T16:11:48Z</time>
      </trkpt>
      <trkpt lat="47.51534" lon="-1.36703">
        <ele>56</ele>
        <time>2018-09-22T16:11:56Z</time>
      </trkpt>
      <trkpt lat="47.51532" lon="-1.36665">
        <ele>56</ele>
        <time>2018-09-22T16:12:03Z</time>
      </trkpt>
      <trkpt lat="47.5153" lon="-1.36615">
        <ele>57</ele>
        <time>2018-09-22T16:12:12Z</time>
      </trkpt>
      <trkpt lat="47.51529" lon="-1.36597">
        <ele>57</ele>
        <time>2018-09-22T16:12:15Z</time>
      </trkpt>
      <trkpt lat="47.51528" lon="-1.36572">
        <ele>57</ele>
        <time>2018-09-22T16:12:20Z</time>
      </trkpt>
      <trkpt lat="47.51527" lon="-1.36556">
        <ele>58</ele>
        <time>2018-09-22T16:12:24Z</time>
      </trkpt>
      <trkpt lat="47.51525" lon="-1.36548">
        <ele>58</ele>
        <time>2018-09-22T16:12:27Z</time>
      </trkpt>
      <trkpt lat="47.51524" lon="-1.36549">
        <ele>58</ele>
        <time>2018-09-22T16:14:59Z</time>
      </trkpt>
      <trkpt lat="47.51523" lon="-1.36549">
        <ele>58</ele>
        <time>2018-09-22T16:15:00Z</time>
      </trkpt>
      <trkpt lat="47.5151" lon="-1.36549">
        <ele>58</ele>
        <time>2018-09-22T16:15:05Z</time>
      </trkpt>
      <trkpt lat="47.51486" lon="-1.36551">
        <ele>58</ele>
        <time>2018-09-22T16:15:13Z</time>
      </trkpt>
      <trkpt lat="47.51457" lon="-1.36553">
        <ele>57</ele>
        <time>2018-09-22T16:15:20Z</time>
      </trkpt>
      <trkpt lat="47.51418" lon="-1.36557">
        <ele>57</ele>
        <time>2018-09-22T16:15:29Z</time>
      </trkpt>
      <trkpt lat="47.5141" lon="-1.36557">
        <ele>56</ele>
        <time>2018-09-22T16:15:31Z</time>
      </trkpt>
      <trkpt lat="47.51392" lon="-1.36557">
        <ele>55</ele>
        <time>2018-09-22T16:15:35Z</time>
      </trkpt>
      <trkpt lat="47.51375" lon="-1.36554">
        <ele>54</ele>
        <time>2018-09-22T16:15:39Z</time>
      </trkpt>
      <trkpt lat="47.51345" lon="-1.36544">
        <ele>53</ele>
        <time>2018-09-22T16:15:45Z</time>
      </trkpt>
      <trkpt lat="47.5134" lon="-1.36542">
        <ele>53</ele>
        <time>2018-09-22T16:15:46Z</time>
      </trkpt>
      <trkpt lat="47.51323" lon="-1.36537">
        <ele>52</ele>
        <time>2018-09-22T16:15:49Z</time>
      </trkpt>
      <trkpt lat="47.51297" lon="-1.36527">
        <ele>51</ele>
        <time>2018-09-22T16:15:54Z</time>
      </trkpt>
      <trkpt lat="47.51274" lon="-1.36521">
        <ele>50</ele>
        <time>2018-09-22T16:15:59Z</time>
      </trkpt>
      <trkpt lat="47.51266" lon="-1.36518">
        <ele>50</ele>
        <time>2018-09-22T16:16:01Z</time>
      </trkpt>
      <trkpt lat="47.5124" lon="-1.36513">
        <ele>50</ele>
        <time>2018-09-22T16:16:08Z</time>
      </trkpt>
      <trkpt lat="47.51226" lon="-1.3652">
        <ele>49</ele>
        <time>2018-09-22T16:16:12Z</time>
      </trkpt>
      <trkpt lat="47.51223" lon="-1.36522">
        <ele>49</ele>
        <time>2018-09-22T16:16:13Z</time>
      </trkpt>
      <trkpt lat="47.51207" lon="-1.36532">
        <ele>50</ele>
        <time>2018-09-22T16:16:19Z</time>
      </trkpt>
      <trkpt lat="47.51203" lon="-1.3653">
        <ele>51</ele>
        <time>2018-09-22T16:17:23Z</time>
      </trkpt>
      <trkpt lat="47.512" lon="-1.36526">
        <ele>51</ele>
        <time>2018-09-22T16:17:25Z</time>
      </trkpt>
      <trkpt lat="47.512" lon="-1.36519">
        <ele>51</ele>
        <time>2018-09-22T16:17:27Z</time>
      </trkpt>
      <trkpt lat="47.512" lon="-1.36515">
        <ele>51</ele>
        <time>2018-09-22T16:17:28Z</time>
      </trkpt>
      <trkpt lat="47.51201" lon="-1.365">
        <ele>51</ele>
        <time>2018-09-22T16:17:32Z</time>
      </trkpt>
      <trkpt lat="47.51202" lon="-1.36495">
        <ele>51</ele>
        <time>2018-09-22T16:17:33Z</time>
      </trkpt>
      <trkpt lat="47.51213" lon="-1.36466">
        <ele>51</ele>
        <time>2018-09-22T16:17:40Z</time>
      </trkpt>
      <trkpt lat="47.5123" lon="-1.36425">
        <ele>51</ele>
        <time>2018-09-22T16:17:49Z</time>
      </trkpt>
      <trkpt lat="47.51247" lon="-1.3639">
        <ele>51</ele>
        <time>2018-09-22T16:17:58Z</time>
      </trkpt>
      <trkpt lat="47.51261" lon="-1.36359">
        <ele>52</ele>
        <time>2018-09-22T16:18:06Z</time>
      </trkpt>
      <trkpt lat="47.51261" lon="-1.36356">
        <ele>52</ele>
        <time>2018-09-22T16:18:07Z</time>
      </trkpt>
      <trkpt lat="47.51263" lon="-1.36345">
        <ele>53</ele>
        <time>2018-09-22T16:18:10Z</time>
      </trkpt>
      <trkpt lat="47.51262" lon="-1.3633">
        <ele>53</ele>
        <time>2018-09-22T16:18:14Z</time>
      </trkpt>
      <trkpt lat="47.51257" lon="-1.36305">
        <ele>54</ele>
        <time>2018-09-22T16:18:19Z</time>
      </trkpt>
      <trkpt lat="47.51254" lon="-1.36292">
        <ele>55</ele>
        <time>2018-09-22T16:18:22Z</time>
      </trkpt>
      <trkpt lat="47.51253" lon="-1.36269">
        <ele>55</ele>
        <time>2018-09-22T16:18:27Z</time>
      </trkpt>
      <trkpt lat="47.51252" lon="-1.36251">
        <ele>56</ele>
        <time>2018-09-22T16:18:31Z</time>
      </trkpt>
      <trkpt lat="47.51255" lon="-1.36206">
        <ele>56</ele>
        <time>2018-09-22T16:18:40Z</time>
      </trkpt>
      <trkpt lat="47.51256" lon="-1.3619">
        <ele>56</ele>
        <time>2018-09-22T16:18:43Z</time>
      </trkpt>
      <trkpt lat="47.51258" lon="-1.36156">
        <ele>56</ele>
        <time>2018-09-22T16:18:50Z</time>
      </trkpt>
      <trkpt lat="47.51263" lon="-1.36102">
        <ele>57</ele>
        <time>2018-09-22T16:19:01Z</time>
      </trkpt>
      <trkpt lat="47.51265" lon="-1.36067">
        <ele>57</ele>
        <time>2018-09-22T16:19:08Z</time>
      </trkpt>
      <trkpt lat="47.51267" lon="-1.36052">
        <ele>57</ele>
        <time>2018-09-22T16:19:11Z</time>
      </trkpt>
      <trkpt lat="47.5127" lon="-1.36016">
        <ele>57</ele>
        <time>2018-09-22T16:19:18Z</time>
      </trkpt>
      <trkpt lat="47.51274" lon="-1.35973">
        <ele>58</ele>
        <time>2018-09-22T16:19:27Z</time>
      </trkpt>
      <trkpt lat="47.51275" lon="-1.35968">
        <ele>58</ele>
        <time>2018-09-22T16:19:28Z</time>
      </trkpt>
      <trkpt lat="47.51277" lon="-1.35941">
        <ele>58</ele>
        <time>2018-09-22T16:19:34Z</time>
      </trkpt>
      <trkpt lat="47.51279" lon="-1.35928">
        <ele>59</ele>
        <time>2018-09-22T16:21:56Z</time>
      </trkpt>
      <trkpt lat="47.51281" lon="-1.35907">
        <ele>59</ele>
        <time>2018-09-22T16:22:02Z</time>
      </trkpt>
      <trkpt lat="47.51284" lon="-1.35873">
        <ele>59</ele>
        <time>2018-09-22T16:22:10Z</time>
      </trkpt>
      <trkpt lat="47.51287" lon="-1.35831">
        <ele>59</ele>
        <time>2018-09-22T16:22:19Z</time>
      </trkpt>
      <trkpt lat="47.51289" lon="-1.35813">
        <ele>59</ele>
        <time>2018-09-22T16:22:23Z</time>
      </trkpt>
      <trkpt lat="47.5129" lon="-1.35788">
        <ele>60</ele>
        <time>2018-09-22T16:22:28Z</time>
      </trkpt>
      <trkpt lat="47.51291" lon="-1.3575">
        <ele>61</ele>
        <time>2018-09-22T16:22:36Z</time>
      </trkpt>
      <trkpt lat="47.51292" lon="-1.35724">
        <ele>61</ele>
        <time>2018-09-22T16:22:42Z</time>
      </trkpt>
      <trkpt lat="47.51295" lon="-1.35692">
        <ele>62</ele>
        <time>2018-09-22T16:22:49Z</time>
      </trkpt>
      <trkpt lat="47.51298" lon="-1.35675">
        <ele>63</ele>
        <time>2018-09-22T16:22:52Z</time>
      </trkpt>
      <trkpt lat="47.513" lon="-1.35652">
        <ele>64</ele>
        <time>2018-09-22T16:22:56Z</time>
      </trkpt>
      <trkpt lat="47.51302" lon="-1.35597">
        <ele>64</ele>
        <time>2018-09-22T16:23:06Z</time>
      </trkpt>
      <trkpt lat="47.51302" lon="-1.35549">
        <ele>64</ele>
        <time>2018-09-22T16:23:15Z</time>
      </trkpt>
      <trkpt lat="47.51303" lon="-1.35493">
        <ele>64</ele>
        <time>2018-09-22T16:23:26Z</time>
      </trkpt>
      <trkpt lat="47.51303" lon="-1.35441">
        <ele>64</ele>
        <time>2018-09-22T16:23:36Z</time>
      </trkpt>
      <trkpt lat="47.51304" lon="-1.35396">
        <ele>64</ele>
        <time>2018-09-22T16:23:45Z</time>
      </trkpt>
      <trkpt lat="47.51313" lon="-1.35363">
        <ele>64</ele>
        <time>2018-09-22T16:23:52Z</time>
      </trkpt>
      <trkpt lat="47.51328" lon="-1.35316">
        <ele>64</ele>
        <time>2018-09-22T16:24:03Z</time>
      </trkpt>
      <trkpt lat="47.51341" lon="-1.35277">
        <ele>64</ele>
        <time>2018-09-22T16:24:12Z</time>
      </trkpt>
      <trkpt lat="47.51355" lon="-1.35234">
        <ele>64</ele>
        <time>2018-09-22T16:24:23Z</time>
      </trkpt>
      <trkpt lat="47.51366" lon="-1.35208">
        <ele>64</ele>
        <time>2018-09-22T16:24:31Z</time>
      </trkpt>
      <trkpt lat="47.51372" lon="-1.35215">
        <ele>64</ele>
        <time>2018-09-22T16:24:35Z</time>
      </trkpt>
      <trkpt lat="47.51373" lon="-1.35219">
        <ele>64</ele>
        <time>2018-09-22T16:27:34Z</time>
      </trkpt>
      <trkpt lat="47.51379" lon="-1.35233">
        <ele>64</ele>
        <time>2018-09-22T16:27:39Z</time>
      </trkpt>
      <trkpt lat="47.51389" lon="-1.35268">
        <ele>64</ele>
        <time>2018-09-22T16:27:47Z</time>
      </trkpt>
      <trkpt lat="47.51398" lon="-1.35301">
        <ele>63</ele>
        <time>2018-09-22T16:27:54Z</time>
      </trkpt>
      <trkpt lat="47.51409" lon="-1.3533">
        <ele>63</ele>
        <time>2018-09-22T16:28:01Z</time>
      </trkpt>
      <trkpt lat="47.51425" lon="-1.35346">
        <ele>63</ele>
        <time>2018-09-22T16:28:07Z</time>
      </trkpt>
      <trkpt lat="47.51447" lon="-1.35346">
        <ele>63</ele>
        <time>2018-09-22T16:28:13Z</time>
      </trkpt>
      <trkpt lat="47.5147" lon="-1.35356">
        <ele>63</ele>
        <time>2018-09-22T16:28:20Z</time>
      </trkpt>
      <trkpt lat="47.51489" lon="-1.35381">
        <ele>63</ele>
        <time>2018-09-22T16:28:27Z</time>
      </trkpt>
      <trkpt lat="47.5151" lon="-1.35405">
        <ele>63</ele>
        <time>2018-09-22T16:28:34Z</time>
      </trkpt>
      <trkpt lat="47.51532" lon="-1.35421">
        <ele>63</ele>
        <time>2018-09-22T16:28:40Z</time>
      </trkpt>
      <trkpt lat="47.51536" lon="-1.35424">
        <ele>62</ele>
        <time>2018-09-22T16:28:41Z</time>
      </trkpt>
      <trkpt lat="47.51575" lon="-1.35443">
        <ele>61</ele>
        <time>2018-09-22T16:28:49Z</time>
      </trkpt>
      <trkpt lat="47.51591" lon="-1.35452">
        <ele>60</ele>
        <time>2018-09-22T16:28:52Z</time>
      </trkpt>
      <trkpt lat="47.51613" lon="-1.35463">
        <ele>59</ele>
        <time>2018-09-22T16:28:56Z</time>
      </trkpt>
      <trkpt lat="47.51618" lon="-1.35466">
        <ele>59</ele>
        <time>2018-09-22T16:28:57Z</time>
      </trkpt>
      <trkpt lat="47.51626" lon="-1.3547">
        <ele>58</ele>
        <time>2018-09-22T16:28:59Z</time>
      </trkpt>
      <trkpt lat="47.5163" lon="-1.35472">
        <ele>58</ele>
        <time>2018-09-22T16:29:00Z</time>
      </trkpt>
      <trkpt lat="47.51637" lon="-1.35471">
        <ele>57</ele>
        <time>2018-09-22T16:29:02Z</time>
      </trkpt>
      <trkpt lat="47.51643" lon="-1.35466">
        <ele>57</ele>
        <time>2018-09-22T16:29:04Z</time>
      </trkpt>
      <trkpt lat="47.51647" lon="-1.35457">
        <ele>56</ele>
        <time>2018-09-22T16:29:06Z</time>
      </trkpt>
      <trkpt lat="47.51651" lon="-1.35444">
        <ele>56</ele>
        <time>2018-09-22T16:29:08Z</time>
      </trkpt>
      <trkpt lat="47.51654" lon="-1.35436">
        <ele>56</ele>
        <time>2018-09-22T16:29:09Z</time>
      </trkpt>
      <trkpt lat="47.51657" lon="-1.35429">
        <ele>55</ele>
        <time>2018-09-22T16:29:10Z</time>
      </trkpt>
      <trkpt lat="47.51664" lon="-1.35407">
        <ele>54</ele>
        <time>2018-09-22T16:29:13Z</time>
      </trkpt>
      <trkpt lat="47.51671" lon="-1.3539">
        <ele>53</ele>
        <time>2018-09-22T16:29:16Z</time>
      </trkpt>
      <trkpt lat="47.51673" lon="-1.35386">
        <ele>53</ele>
        <time>2018-09-22T16:29:17Z</time>
      </trkpt>
      <trkpt lat="47.51677" lon="-1.35377">
        <ele>52</ele>
        <time>2018-09-22T16:29:20Z</time>
      </trkpt>
      <trkpt lat="47.5168" lon="-1.35373">
        <ele>51</ele>
        <time>2018-09-22T16:29:58Z</time>
      </trkpt>
      <trkpt lat="47.51683" lon="-1.35366">
        <ele>51</ele>
        <time>2018-09-22T16:30:01Z</time>
      </trkpt>
      <trkpt lat="47.51696" lon="-1.35346">
        <ele>51</ele>
        <time>2018-09-22T16:30:08Z</time>
      </trkpt>
      <trkpt lat="47.51713" lon="-1.3532">
        <ele>50</ele>
        <time>2018-09-22T16:30:15Z</time>
      </trkpt>
      <trkpt lat="47.5172" lon="-1.35308">
        <ele>50</ele>
        <time>2018-09-22T16:30:18Z</time>
      </trkpt>
      <trkpt lat="47.51736" lon="-1.35285">
        <ele>49</ele>
        <time>2018-09-22T16:30:24Z</time>
      </trkpt>
      <trkpt lat="47.51739" lon="-1.35281">
        <ele>49</ele>
        <time>2018-09-22T16:30:25Z</time>
      </trkpt>
      <trkpt lat="47.51752" lon="-1.3526">
        <ele>48</ele>
        <time>2018-09-22T16:30:30Z</time>
      </trkpt>
      <trkpt lat="47.5176" lon="-1.35247">
        <ele>47</ele>
        <time>2018-09-22T16:30:33Z</time>
      </trkpt>
      <trkpt lat="47.51765" lon="-1.35239">
        <ele>47</ele>
        <time>2018-09-22T16:30:35Z</time>
      </trkpt>
      <trkpt lat="47.51778" lon="-1.35217">
        <ele>46</ele>
        <time>2018-09-22T16:30:40Z</time>
      </trkpt>
      <trkpt lat="47.51782" lon="-1.35212">
        <ele>46</ele>
        <time>2018-09-22T16:30:41Z</time>
      </trkpt>
      <trkpt lat="47.51793" lon="-1.35194">
        <ele>44</ele>
        <time>2018-09-22T16:30:45Z</time>
      </trkpt>
      <trkpt lat="47.51808" lon="-1.35173">
        <ele>44</ele>
        <time>2018-09-22T16:30:50Z</time>
      </trkpt>
      <trkpt lat="47.5181" lon="-1.35168">
        <ele>43</ele>
        <time>2018-09-22T16:30:51Z</time>
      </trkpt>
      <trkpt lat="47.51824" lon="-1.35148">
        <ele>43</ele>
        <time>2018-09-22T16:30:56Z</time>
      </trkpt>
      <trkpt lat="47.51827" lon="-1.35143">
        <ele>42</ele>
        <time>2018-09-22T16:30:57Z</time>
      </trkpt>
      <trkpt lat="47.51838" lon="-1.35129">
        <ele>41</ele>
        <time>2018-09-22T16:31:01Z</time>
      </trkpt>
      <trkpt lat="47.51844" lon="-1.35125">
        <ele>41</ele>
        <time>2018-09-22T16:31:03Z</time>
      </trkpt>
      <trkpt lat="47.5185" lon="-1.35118">
        <ele>40</ele>
        <time>2018-09-22T16:31:06Z</time>
      </trkpt>
      <trkpt lat="47.51854" lon="-1.35112">
        <ele>40</ele>
        <time>2018-09-22T16:31:08Z</time>
      </trkpt>
      <trkpt lat="47.51854" lon="-1.35107">
        <ele>40</ele>
        <time>2018-09-22T16:31:09Z</time>
      </trkpt>
      <trkpt lat="47.51853" lon="-1.35098">
        <ele>40</ele>
        <time>2018-09-22T16:31:11Z</time>
      </trkpt>
      <trkpt lat="47.51846" lon="-1.35087">
        <ele>40</ele>
        <time>2018-09-22T16:31:15Z</time>
      </trkpt>
      <trkpt lat="47.51833" lon="-1.35065">
        <ele>41</ele>
        <time>2018-09-22T16:31:24Z</time>
      </trkpt>
      <trkpt lat="47.51831" lon="-1.35061">
        <ele>41</ele>
        <time>2018-09-22T16:31:26Z</time>
      </trkpt>
      <trkpt lat="47.51824" lon="-1.3505">
        <ele>43</ele>
        <time>2018-09-22T16:31:31Z</time>
      </trkpt>
      <trkpt lat="47.51822" lon="-1.35047">
        <ele>43</ele>
        <time>2018-09-22T16:31:33Z</time>
      </trkpt>
      <trkpt lat="47.5182" lon="-1.35043">
        <ele>44</ele>
        <time>2018-09-22T16:31:35Z</time>
      </trkpt>
      <trkpt lat="47.51816" lon="-1.35034">
        <ele>45</ele>
        <time>2018-09-22T16:31:39Z</time>
      </trkpt>
      <trkpt lat="47.51814" lon="-1.3503">
        <ele>46</ele>
        <time>2018-09-22T16:31:41Z</time>
      </trkpt>
      <trkpt lat="47.5181" lon="-1.35021">
        <ele>46</ele>
        <time>2018-09-22T16:31:45Z</time>
      </trkpt>
      <trkpt lat="47.51806" lon="-1.35008">
        <ele>47</ele>
        <time>2018-09-22T16:31:50Z</time>
      </trkpt>
      <trkpt lat="47.51805" lon="-1.35006">
        <ele>48</ele>
        <time>2018-09-22T16:31:51Z</time>
      </trkpt>
      <trkpt lat="47.51803" lon="-1.34993">
        <ele>49</ele>
        <time>2018-09-22T16:31:56Z</time>
      </trkpt>
      <trkpt lat="47.51803" lon="-1.34983">
        <ele>49</ele>
        <time>2018-09-22T16:32:00Z</time>
      </trkpt>
      <trkpt lat="47.51803" lon="-1.34978">
        <ele>50</ele>
        <time>2018-09-22T16:32:02Z</time>
      </trkpt>
      <trkpt lat="47.51803" lon="-1.34974">
        <ele>51</ele>
        <time>2018-09-22T16:33:37Z</time>
      </trkpt>
      <trkpt lat="47.51804" lon="-1.34967">
        <ele>51</ele>
        <time>2018-09-22T16:33:39Z</time>
      </trkpt>
      <trkpt lat="47.51805" lon="-1.34952">
        <ele>51</ele>
        <time>2018-09-22T16:33:43Z</time>
      </trkpt>
      <trkpt lat="47.51807" lon="-1.34924">
        <ele>52</ele>
        <time>2018-09-22T16:33:50Z</time>
      </trkpt>
      <trkpt lat="47.51808" lon="-1.34913">
        <ele>52</ele>
        <time>2018-09-22T16:33:53Z</time>
      </trkpt>
      <trkpt lat="47.51811" lon="-1.34885">
        <ele>53</ele>
        <time>2018-09-22T16:34:00Z</time>
      </trkpt>
      <trkpt lat="47.51811" lon="-1.34877">
        <ele>53</ele>
        <time>2018-09-22T16:34:02Z</time>
      </trkpt>
      <trkpt lat="47.51813" lon="-1.34858">
        <ele>54</ele>
        <time>2018-09-22T16:34:07Z</time>
      </trkpt>
      <trkpt lat="47.51815" lon="-1.34843">
        <ele>55</ele>
        <time>2018-09-22T16:34:11Z</time>
      </trkpt>
      <trkpt lat="47.51816" lon="-1.34831">
        <ele>55</ele>
        <time>2018-09-22T16:34:14Z</time>
      </trkpt>
      <trkpt lat="47.51818" lon="-1.34805">
        <ele>56</ele>
        <time>2018-09-22T16:34:21Z</time>
      </trkpt>
      <trkpt lat="47.5182" lon="-1.34783">
        <ele>57</ele>
        <time>2018-09-22T16:34:27Z</time>
      </trkpt>
      <trkpt lat="47.51821" lon="-1.34768">
        <ele>58</ele>
        <time>2018-09-22T16:34:31Z</time>
      </trkpt>
      <trkpt lat="47.51821" lon="-1.3476">
        <ele>58</ele>
        <time>2018-09-22T16:34:33Z</time>
      </trkpt>
      <trkpt lat="47.51822" lon="-1.34733">
        <ele>59</ele>
        <time>2018-09-22T16:34:40Z</time>
      </trkpt>
      <trkpt lat="47.51823" lon="-1.34707">
        <ele>59</ele>
        <time>2018-09-22T16:34:47Z</time>
      </trkpt>
      <trkpt lat="47.51823" lon="-1.34703">
        <ele>60</ele>
        <time>2018-09-22T16:34:48Z</time>
      </trkpt>
      <trkpt lat="47.51824" lon="-1.34675">
        <ele>60</ele>
        <time>2018-09-22T16:34:55Z</time>
      </trkpt>
      <trkpt lat="47.51825" lon="-1.3466">
        <ele>61</ele>
        <time>2018-09-22T16:34:59Z</time>
      </trkpt>
      <trkpt lat="47.51826" lon="-1.34637">
        <ele>62</ele>
        <time>2018-09-22T16:35:05Z</time>
      </trkpt>
      <trkpt lat="47.51827" lon="-1.34617">
        <ele>62</ele>
        <time>2018-09-22T16:35:10Z</time>
      </trkpt>
      <trkpt lat="47.51828" lon="-1.34571">
        <ele>62</ele>
        <time>2018-09-22T16:35:21Z</time>
      </trkpt>
      <trkpt lat="47.51827" lon="-1.34568">
        <ele>63</ele>
        <time>2018-09-22T16:35:22Z</time>
      </trkpt>
      <trkpt lat="47.51822" lon="-1.34547">
        <ele>63</ele>
        <time>2018-09-22T16:35:28Z</time>
      </trkpt>
      <trkpt lat="47.51811" lon="-1.34515">
        <ele>63</ele>
        <time>2018-09-22T16:35:37Z</time>
      </trkpt>
      <trkpt lat="47.51795" lon="-1.34473">
        <ele>63</ele>
        <time>2018-09-22T16:35:49Z</time>
      </trkpt>
      <trkpt lat="47.5178" lon="-1.34434">
        <ele>63</ele>
        <time>2018-09-22T16:36:00Z</time>
      </trkpt>
      <trkpt lat="47.51767" lon="-1.34402">
        <ele>63</ele>
        <time>2018-09-22T16:36:09Z</time>
      </trkpt>
      <trkpt lat="47.51753" lon="-1.34389">
        <ele>64</ele>
        <time>2018-09-22T16:36:15Z</time>
      </trkpt>
      <trkpt lat="47.51733" lon="-1.34384">
        <ele>63</ele>
        <time>2018-09-22T16:36:22Z</time>
      </trkpt>
      <trkpt lat="47.51709" lon="-1.34379">
        <ele>64</ele>
        <time>2018-09-22T16:36:30Z</time>
      </trkpt>
      <trkpt lat="47.51682" lon="-1.34372">
        <ele>64</ele>
        <time>2018-09-22T16:36:39Z</time>
      </trkpt>
      <trkpt lat="47.51653" lon="-1.34363">
        <ele>64</ele>
        <time>2018-09-22T16:36:49Z</time>
      </trkpt>
      <trkpt lat="47.51631" lon="-1.34357">
        <ele>65</ele>
        <time>2018-09-22T16:36:57Z</time>
      </trkpt>
      <trkpt lat="47.51622" lon="-1.34355">
        <ele>65</ele>
        <time>2018-09-22T16:37:00Z</time>
      </trkpt>
      <trkpt lat="47.51593" lon="-1.34346">
        <ele>65</ele>
        <time>2018-09-22T16:37:10Z</time>
      </trkpt>
      <trkpt lat="47.51566" lon="-1.34339">
        <ele>65</ele>
        <time>2018-09-22T16:37:20Z</time>
      </trkpt>
      <trkpt lat="47.5154" lon="-1.34332">
        <ele>65</ele>
        <time>2018-09-22T16:37:29Z</time>
      </trkpt>
      <trkpt lat="47.51512" lon="-1.34324">
        <ele>65</ele>
        <time>2018-09-22T16:37:39Z</time>
      </trkpt>
      <trkpt lat="47.51499" lon="-1.34322">
        <ele>66</ele>
        <time>2018-09-22T16:37:44Z</time>
      </trkpt>
      <trkpt lat="47.51491" lon="-1.34322">
        <ele>66</ele>
        <time>2018-09-22T16:37:47Z</time>
      </trkpt>
      <trkpt lat="47.51475" lon="-1.34325">
        <ele>67</ele>
        <time>2018-09-22T16:37:54Z</time>
      </trkpt>
      <trkpt lat="47.51479" lon="-1.34322">
        <ele>66</ele>
        <time>2018-09-22T16:41:44Z</time>
      </trkpt>
      <trkpt lat="47.51477" lon="-1.34322">
        <ele>66</ele>
        <time>2018-09-22T16:41:45Z</time>
      </trkpt>
      <trkpt lat="47.51463" lon="-1.34326">
        <ele>67</ele>
        <time>2018-09-22T16:41:52Z</time>
      </trkpt>
      <trkpt lat="47.5145" lon="-1.3433">
        <ele>67</ele>
        <time>2018-09-22T16:42:00Z</time>
      </trkpt>
      <trkpt lat="47.51446" lon="-1.34331">
        <ele>67</ele>
        <time>2018-09-22T16:42:02Z</time>
      </trkpt>
      <trkpt lat="47.51432" lon="-1.34336">
        <ele>67</ele>
        <time>2018-09-22T16:42:10Z</time>
      </trkpt>
      <trkpt lat="47.51417" lon="-1.3434">
        <ele>68</ele>
        <time>2018-09-22T16:42:19Z</time>
      </trkpt>
      <trkpt lat="47.51409" lon="-1.34342">
        <ele>68</ele>
        <time>2018-09-22T16:42:24Z</time>
      </trkpt>
      <trkpt lat="47.51403" lon="-1.34344">
        <ele>68</ele>
        <time>2018-09-22T16:42:27Z</time>
      </trkpt>
      <trkpt lat="47.51383" lon="-1.3435">
        <ele>69</ele>
        <time>2018-09-22T16:42:37Z</time>
      </trkpt>
      <trkpt lat="47.51366" lon="-1.34354">
        <ele>69</ele>
        <time>2018-09-22T16:42:45Z</time>
      </trkpt>
      <trkpt lat="47.5136" lon="-1.34356">
        <ele>69</ele>
        <time>2018-09-22T16:42:48Z</time>
      </trkpt>
      <trkpt lat="47.51352" lon="-1.34357">
        <ele>69</ele>
        <time>2018-09-22T16:42:52Z</time>
      </trkpt>
      <trkpt lat="47.51344" lon="-1.34359">
        <ele>70</ele>
        <time>2018-09-22T16:42:56Z</time>
      </trkpt>
      <trkpt lat="47.51331" lon="-1.34361">
        <ele>70</ele>
        <time>2018-09-22T16:43:02Z</time>
      </trkpt>
      <trkpt lat="47.51318" lon="-1.34364">
        <ele>71</ele>
        <time>2018-09-22T16:43:08Z</time>
      </trkpt>
      <trkpt lat="47.51313" lon="-1.34365">
        <ele>71</ele>
        <time>2018-09-22T16:43:10Z</time>
      </trkpt>
      <trkpt lat="47.51306" lon="-1.34369">
        <ele>72</ele>
        <time>2018-09-22T16:43:14Z</time>
      </trkpt>
      <trkpt lat="47.51302" lon="-1.34373">
        <ele>72</ele>
        <time>2018-09-22T16:43:17Z</time>
      </trkpt>
      <trkpt lat="47.513" lon="-1.34373">
        <ele>71</ele>
        <time>2018-09-22T16:43:19Z</time>
      </trkpt>
      <trkpt lat="47.51298" lon="-1.34367">
        <ele>71</ele>
        <time>2018-09-22T16:43:22Z</time>
      </trkpt>
      <trkpt lat="47.51296" lon="-1.34359">
        <ele>72</ele>
        <time>2018-09-22T16:43:25Z</time>
      </trkpt>
      <trkpt lat="47.51292" lon="-1.34348">
        <ele>72</ele>
        <time>2018-09-22T16:43:29Z</time>
      </trkpt>
      <trkpt lat="47.51291" lon="-1.34345">
        <ele>72</ele>
        <time>2018-09-22T16:43:30Z</time>
      </trkpt>
      <trkpt lat="47.51284" lon="-1.34327">
        <ele>72</ele>
        <time>2018-09-22T16:43:36Z</time>
      </trkpt>
      <trkpt lat="47.51271" lon="-1.34306">
        <ele>72</ele>
        <time>2018-09-22T16:43:44Z</time>
      </trkpt>
      <trkpt lat="47.51256" lon="-1.34292">
        <ele>73</ele>
        <time>2018-09-22T16:43:52Z</time>
      </trkpt>
      <trkpt lat="47.51254" lon="-1.3429">
        <ele>73</ele>
        <time>2018-09-22T16:43:53Z</time>
      </trkpt>
      <trkpt lat="47.51248" lon="-1.34278">
        <ele>73</ele>
        <time>2018-09-22T16:43:59Z</time>
      </trkpt>
      <trkpt lat="47.51244" lon="-1.34258">
        <ele>74</ele>
        <time>2018-09-22T16:44:05Z</time>
      </trkpt>
      <trkpt lat="47.51239" lon="-1.34223">
        <ele>74</ele>
        <time>2018-09-22T16:44:13Z</time>
      </trkpt>
      <trkpt lat="47.51237" lon="-1.34197">
        <ele>74</ele>
        <time>2018-09-22T16:44:18Z</time>
      </trkpt>
      <trkpt lat="47.51233" lon="-1.34168">
        <ele>74</ele>
        <time>2018-09-22T16:44:23Z</time>
      </trkpt>
      <trkpt lat="47.51228" lon="-1.34114">
        <ele>73</ele>
        <time>2018-09-22T16:44:32Z</time>
      </trkpt>
      <trkpt lat="47.51223" lon="-1.34074">
        <ele>72</ele>
        <time>2018-09-22T16:44:39Z</time>
      </trkpt>
      <trkpt lat="47.51222" lon="-1.34069">
        <ele>72</ele>
        <time>2018-09-22T16:44:40Z</time>
      </trkpt>
      <trkpt lat="47.51219" lon="-1.34021">
        <ele>72</ele>
        <time>2018-09-22T16:44:49Z</time>
      </trkpt>
      <trkpt lat="47.5122" lon="-1.34007">
        <ele>73</ele>
        <time>2018-09-22T16:44:52Z</time>
      </trkpt>
      <trkpt lat="47.51221" lon="-1.33992">
        <ele>73</ele>
        <time>2018-09-22T16:44:56Z</time>
      </trkpt>
      <trkpt lat="47.51225" lon="-1.33983">
        <ele>71</ele>
        <time>2018-09-22T16:45:19Z</time>
      </trkpt>
      <trkpt lat="47.51232" lon="-1.33985">
        <ele>72</ele>
        <time>2018-09-22T16:45:23Z</time>
      </trkpt>
      <trkpt lat="47.51234" lon="-1.33986">
        <ele>72</ele>
        <time>2018-09-22T16:45:24Z</time>
      </trkpt>
      <trkpt lat="47.51252" lon="-1.34001">
        <ele>72</ele>
        <time>2018-09-22T16:45:32Z</time>
      </trkpt>
      <trkpt lat="47.51276" lon="-1.34022">
        <ele>72</ele>
        <time>2018-09-22T16:45:43Z</time>
      </trkpt>
      <trkpt lat="47.51299" lon="-1.34036">
        <ele>72</ele>
        <time>2018-09-22T16:45:52Z</time>
      </trkpt>
      <trkpt lat="47.51321" lon="-1.34044">
        <ele>72</ele>
        <time>2018-09-22T16:46:00Z</time>
      </trkpt>
      <trkpt lat="47.51346" lon="-1.34044">
        <ele>72</ele>
        <time>2018-09-22T16:46:07Z</time>
      </trkpt>
      <trkpt lat="47.51379" lon="-1.34042">
        <ele>71</ele>
        <time>2018-09-22T16:46:15Z</time>
      </trkpt>
      <trkpt lat="47.51397" lon="-1.34042">
        <ele>70</ele>
        <time>2018-09-22T16:46:19Z</time>
      </trkpt>
      <trkpt lat="47.51417" lon="-1.34041">
        <ele>69</ele>
        <time>2018-09-22T16:46:23Z</time>
      </trkpt>
      <trkpt lat="47.51443" lon="-1.34038">
        <ele>69</ele>
        <time>2018-09-22T16:46:28Z</time>
      </trkpt>
      <trkpt lat="47.51471" lon="-1.34031">
        <ele>68</ele>
        <time>2018-09-22T16:46:33Z</time>
      </trkpt>
      <trkpt lat="47.51483" lon="-1.34027">
        <ele>68</ele>
        <time>2018-09-22T16:46:35Z</time>
      </trkpt>
      <trkpt lat="47.51507" lon="-1.34015">
        <ele>67</ele>
        <time>2018-09-22T16:46:39Z</time>
      </trkpt>
      <trkpt lat="47.51519" lon="-1.34008">
        <ele>67</ele>
        <time>2018-09-22T16:46:41Z</time>
      </trkpt>
      <trkpt lat="47.51545" lon="-1.33995">
        <ele>66</ele>
        <time>2018-09-22T16:46:45Z</time>
      </trkpt>
      <trkpt lat="47.51558" lon="-1.33989">
        <ele>65</ele>
        <time>2018-09-22T16:46:47Z</time>
      </trkpt>
      <trkpt lat="47.51576" lon="-1.33979">
        <ele>65</ele>
        <time>2018-09-22T16:46:50Z</time>
      </trkpt>
      <trkpt lat="47.51605" lon="-1.33964">
        <ele>63</ele>
        <time>2018-09-22T16:46:55Z</time>
      </trkpt>
      <trkpt lat="47.51617" lon="-1.33958">
        <ele>63</ele>
        <time>2018-09-22T16:46:57Z</time>
      </trkpt>
      <trkpt lat="47.51641" lon="-1.33946">
        <ele>62</ele>
        <time>2018-09-22T16:47:01Z</time>
      </trkpt>
      <trkpt lat="47.51678" lon="-1.33928">
        <ele>61</ele>
        <time>2018-09-22T16:47:07Z</time>
      </trkpt>
      <trkpt lat="47.51684" lon="-1.33926">
        <ele>61</ele>
        <time>2018-09-22T16:47:08Z</time>
      </trkpt>
      <trkpt lat="47.51703" lon="-1.33923">
        <ele>61</ele>
        <time>2018-09-22T16:47:11Z</time>
      </trkpt>
      <trkpt lat="47.51715" lon="-1.33925">
        <ele>60</ele>
        <time>2018-09-22T16:47:13Z</time>
      </trkpt>
      <trkpt lat="47.51726" lon="-1.33929">
        <ele>60</ele>
        <time>2018-09-22T16:47:15Z</time>
      </trkpt>
      <trkpt lat="47.51753" lon="-1.33942">
        <ele>60</ele>
        <time>2018-09-22T16:47:20Z</time>
      </trkpt>
      <trkpt lat="47.51788" lon="-1.33959">
        <ele>60</ele>
        <time>2018-09-22T16:47:27Z</time>
      </trkpt>
      <trkpt lat="47.51815" lon="-1.33971">
        <ele>60</ele>
        <time>2018-09-22T16:47:34Z</time>
      </trkpt>
      <trkpt lat="47.51856" lon="-1.33984">
        <ele>60</ele>
        <time>2018-09-22T16:47:44Z</time>
      </trkpt>
      <trkpt lat="47.51888" lon="-1.33991">
        <ele>61</ele>
        <time>2018-09-22T16:47:52Z</time>
      </trkpt>
      <trkpt lat="47.51927" lon="-1.33996">
        <ele>61</ele>
        <time>2018-09-22T16:48:01Z</time>
      </trkpt>
      <trkpt lat="47.51956" lon="-1.33996">
        <ele>60</ele>
        <time>2018-09-22T16:48:06Z</time>
      </trkpt>
      <trkpt lat="47.51984" lon="-1.33995">
        <ele>59</ele>
        <time>2018-09-22T16:48:10Z</time>
      </trkpt>
      <trkpt lat="47.52012" lon="-1.33997">
        <ele>58</ele>
        <time>2018-09-22T16:48:14Z</time>
      </trkpt>
      <trkpt lat="47.52033" lon="-1.34003">
        <ele>57</ele>
        <time>2018-09-22T16:48:17Z</time>
      </trkpt>
      <trkpt lat="47.52047" lon="-1.3401">
        <ele>56</ele>
        <time>2018-09-22T16:48:19Z</time>
      </trkpt>
      <trkpt lat="47.52061" lon="-1.3402">
        <ele>56</ele>
        <time>2018-09-22T16:48:21Z</time>
      </trkpt>
      <trkpt lat="47.52079" lon="-1.34032">
        <ele>55</ele>
        <time>2018-09-22T16:48:24Z</time>
      </trkpt>
      <trkpt lat="47.52086" lon="-1.34035">
        <ele>55</ele>
        <time>2018-09-22T16:48:25Z</time>
      </trkpt>
      <trkpt lat="47.52107" lon="-1.34037">
        <ele>54</ele>
        <time>2018-09-22T16:48:28Z</time>
      </trkpt>
      <trkpt lat="47.52114" lon="-1.34035">
        <ele>54</ele>
        <time>2018-09-22T16:48:29Z</time>
      </trkpt>
      <trkpt lat="47.52126" lon="-1.34028">
        <ele>53</ele>
        <time>2018-09-22T16:48:31Z</time>
      </trkpt>
      <trkpt lat="47.52132" lon="-1.34024">
        <ele>53</ele>
        <time>2018-09-22T16:48:32Z</time>
      </trkpt>
      <trkpt lat="47.52143" lon="-1.34017">
        <ele>52</ele>
        <time>2018-09-22T16:48:34Z</time>
      </trkpt>
      <trkpt lat="47.52162" lon="-1.34003">
        <ele>52</ele>
        <time>2018-09-22T16:48:38Z</time>
      </trkpt>
      <trkpt lat="47.52172" lon="-1.33997">
        <ele>51</ele>
        <time>2018-09-22T16:48:40Z</time>
      </trkpt>
      <trkpt lat="47.52189" lon="-1.33985">
        <ele>51</ele>
        <time>2018-09-22T16:48:44Z</time>
      </trkpt>
      <trkpt lat="47.52198" lon="-1.33978">
        <ele>50</ele>
        <time>2018-09-22T16:48:47Z</time>
      </trkpt>
      <trkpt lat="47.52201" lon="-1.33976">
        <ele>50</ele>
        <time>2018-09-22T16:48:49Z</time>
      </trkpt>
      <trkpt lat="47.52205" lon="-1.33975">
        <ele>50</ele>
        <time>2018-09-22T16:48:58Z</time>
      </trkpt>
      <trkpt lat="47.52206" lon="-1.33977">
        <ele>50</ele>
        <time>2018-09-22T16:48:59Z</time>
      </trkpt>
      <trkpt lat="47.52211" lon="-1.33989">
        <ele>50</ele>
        <time>2018-09-22T16:49:02Z</time>
      </trkpt>
      <trkpt lat="47.52212" lon="-1.33994">
        <ele>50</ele>
        <time>2018-09-22T16:49:03Z</time>
      </trkpt>
      <trkpt lat="47.52224" lon="-1.3404">
        <ele>49</ele>
        <time>2018-09-22T16:49:10Z</time>
      </trkpt>
      <trkpt lat="47.52226" lon="-1.34047">
        <ele>49</ele>
        <time>2018-09-22T16:49:11Z</time>
      </trkpt>
      <trkpt lat="47.52239" lon="-1.341">
        <ele>49</ele>
        <time>2018-09-22T16:49:18Z</time>
      </trkpt>
      <trkpt lat="47.52248" lon="-1.34133">
        <ele>48</ele>
        <time>2018-09-22T16:49:22Z</time>
      </trkpt>
      <trkpt lat="47.52259" lon="-1.34174">
        <ele>47</ele>
        <time>2018-09-22T16:49:27Z</time>
      </trkpt>
      <trkpt lat="47.52279" lon="-1.3425">
        <ele>46</ele>
        <time>2018-09-22T16:49:36Z</time>
      </trkpt>
      <trkpt lat="47.52281" lon="-1.34258">
        <ele>46</ele>
        <time>2018-09-22T16:49:37Z</time>
      </trkpt>
      <trkpt lat="47.523" lon="-1.34327">
        <ele>45</ele>
        <time>2018-09-22T16:49:46Z</time>
      </trkpt>
      <trkpt lat="47.52314" lon="-1.3438">
        <ele>45</ele>
        <time>2018-09-22T16:49:54Z</time>
      </trkpt>
      <trkpt lat="47.52317" lon="-1.34391">
        <ele>45</ele>
        <time>2018-09-22T16:49:56Z</time>
      </trkpt>
      <trkpt lat="47.52327" lon="-1.34429">
        <ele>45</ele>
        <time>2018-09-22T16:50:02Z</time>
      </trkpt>
      <trkpt lat="47.52344" lon="-1.34487">
        <ele>44</ele>
        <time>2018-09-22T16:50:11Z</time>
      </trkpt>
      <trkpt lat="47.52347" lon="-1.34492">
        <ele>44</ele>
        <time>2018-09-22T16:50:12Z</time>
      </trkpt>
      <trkpt lat="47.52359" lon="-1.34511">
        <ele>44</ele>
        <time>2018-09-22T16:50:16Z</time>
      </trkpt>
      <trkpt lat="47.5238" lon="-1.34536">
        <ele>43</ele>
        <time>2018-09-22T16:50:21Z</time>
      </trkpt>
      <trkpt lat="47.52384" lon="-1.34541">
        <ele>43</ele>
        <time>2018-09-22T16:50:22Z</time>
      </trkpt>
      <trkpt lat="47.52406" lon="-1.34562">
        <ele>42</ele>
        <time>2018-09-22T16:50:27Z</time>
      </trkpt>
      <trkpt lat="47.52418" lon="-1.34574">
        <ele>42</ele>
        <time>2018-09-22T16:50:30Z</time>
      </trkpt>
      <trkpt lat="47.52452" lon="-1.34609">
        <ele>42</ele>
        <time>2018-09-22T16:50:39Z</time>
      </trkpt>
      <trkpt lat="47.52479" lon="-1.3464">
        <ele>42</ele>
        <time>2018-09-22T16:50:48Z</time>
      </trkpt>
      <trkpt lat="47.52503" lon="-1.34669">
        <ele>42</ele>
        <time>2018-09-22T16:50:58Z</time>
      </trkpt>
      <trkpt lat="47.52506" lon="-1.3468">
        <ele>42</ele>
        <time>2018-09-22T16:51:13Z</time>
      </trkpt>
      <trkpt lat="47.52502" lon="-1.34688">
        <ele>42</ele>
        <time>2018-09-22T16:51:16Z</time>
      </trkpt>
      <trkpt lat="47.52494" lon="-1.34701">
        <ele>41</ele>
        <time>2018-09-22T16:51:19Z</time>
      </trkpt>
      <trkpt lat="47.52486" lon="-1.34712">
        <ele>41</ele>
        <time>2018-09-22T16:51:22Z</time>
      </trkpt>
      <trkpt lat="47.52471" lon="-1.34738">
        <ele>41</ele>
        <time>2018-09-22T16:51:29Z</time>
      </trkpt>
      <trkpt lat="47.52457" lon="-1.3476">
        <ele>40</ele>
        <time>2018-09-22T16:51:35Z</time>
      </trkpt>
      <trkpt lat="47.52443" lon="-1.34775">
        <ele>41</ele>
        <time>2018-09-22T16:51:41Z</time>
      </trkpt>
      <trkpt lat="47.5243" lon="-1.34786">
        <ele>40</ele>
        <time>2018-09-22T16:51:46Z</time>
      </trkpt>
      <trkpt lat="47.52427" lon="-1.34788">
        <ele>40</ele>
        <time>2018-09-22T16:51:47Z</time>
      </trkpt>
      <trkpt lat="47.52405" lon="-1.34806">
        <ele>41</ele>
        <time>2018-09-22T16:51:54Z</time>
      </trkpt>
      <trkpt lat="47.52389" lon="-1.34819">
        <ele>41</ele>
        <time>2018-09-22T16:51:59Z</time>
      </trkpt>
      <trkpt lat="47.52374" lon="-1.34832">
        <ele>41</ele>
        <time>2018-09-22T16:52:04Z</time>
      </trkpt>
      <trkpt lat="47.52353" lon="-1.34858">
        <ele>40</ele>
        <time>2018-09-22T16:52:11Z</time>
      </trkpt>
      <trkpt lat="47.52342" lon="-1.34886">
        <ele>41</ele>
        <time>2018-09-22T16:52:17Z</time>
      </trkpt>
      <trkpt lat="47.52334" lon="-1.34919">
        <ele>41</ele>
        <time>2018-09-22T16:52:23Z</time>
      </trkpt>
      <trkpt lat="47.52326" lon="-1.34967">
        <ele>41</ele>
        <time>2018-09-22T16:52:32Z</time>
      </trkpt>
      <trkpt lat="47.52316" lon="-1.35027">
        <ele>41</ele>
        <time>2018-09-22T16:52:43Z</time>
      </trkpt>
      <trkpt lat="47.52307" lon="-1.35081">
        <ele>40</ele>
        <time>2018-09-22T16:52:53Z</time>
      </trkpt>
      <trkpt lat="47.52311" lon="-1.35092">
        <ele>41</ele>
        <time>2018-09-22T16:57:17Z</time>
      </trkpt>
      <trkpt lat="47.52317" lon="-1.35092">
        <ele>41</ele>
        <time>2018-09-22T16:57:19Z</time>
      </trkpt>
      <trkpt lat="47.52332" lon="-1.35092">
        <ele>41</ele>
        <time>2018-09-22T16:57:24Z</time>
      </trkpt>
      <trkpt lat="47.52348" lon="-1.35089">
        <ele>42</ele>
        <time>2018-09-22T16:57:30Z</time>
      </trkpt>
      <trkpt lat="47.5235" lon="-1.35089">
        <ele>43</ele>
        <time>2018-09-22T16:57:31Z</time>
      </trkpt>
      <trkpt lat="47.52362" lon="-1.35087">
        <ele>43</ele>
        <time>2018-09-22T16:57:36Z</time>
      </trkpt>
      <trkpt lat="47.52367" lon="-1.35087">
        <ele>44</ele>
        <time>2018-09-22T16:57:38Z</time>
      </trkpt>
      <trkpt lat="47.52378" lon="-1.35086">
        <ele>44</ele>
        <time>2018-09-22T16:57:43Z</time>
      </trkpt>
      <trkpt lat="47.52383" lon="-1.35086">
        <ele>45</ele>
        <time>2018-09-22T16:57:45Z</time>
      </trkpt>
      <trkpt lat="47.52394" lon="-1.35086">
        <ele>46</ele>
        <time>2018-09-22T16:57:50Z</time>
      </trkpt>
      <trkpt lat="47.52396" lon="-1.35086">
        <ele>46</ele>
        <time>2018-09-22T16:57:51Z</time>
      </trkpt>
      <trkpt lat="47.52406" lon="-1.35086">
        <ele>47</ele>
        <time>2018-09-22T16:57:55Z</time>
      </trkpt>
      <trkpt lat="47.52423" lon="-1.35085">
        <ele>48</ele>
        <time>2018-09-22T16:58:03Z</time>
      </trkpt>
      <trkpt lat="47.52431" lon="-1.35084">
        <ele>48</ele>
        <time>2018-09-22T16:58:07Z</time>
      </trkpt>
      <trkpt lat="47.52433" lon="-1.35084">
        <ele>48</ele>
        <time>2018-09-22T16:58:08Z</time>
      </trkpt>
      <trkpt lat="47.52435" lon="-1.35085">
        <ele>49</ele>
        <time>2018-09-22T16:58:10Z</time>
      </trkpt>
      <trkpt lat="47.52437" lon="-1.35079">
        <ele>49</ele>
        <time>2018-09-22T16:59:26Z</time>
      </trkpt>
      <trkpt lat="47.52437" lon="-1.35076">
        <ele>49</ele>
        <time>2018-09-22T16:59:27Z</time>
      </trkpt>
      <trkpt lat="47.52436" lon="-1.35053">
        <ele>49</ele>
        <time>2018-09-22T16:59:32Z</time>
      </trkpt>
      <trkpt lat="47.52436" lon="-1.35026">
        <ele>48</ele>
        <time>2018-09-22T16:59:37Z</time>
      </trkpt>
      <trkpt lat="47.52436" lon="-1.3502">
        <ele>48</ele>
        <time>2018-09-22T16:59:38Z</time>
      </trkpt>
      <trkpt lat="47.52442" lon="-1.34968">
        <ele>48</ele>
        <time>2018-09-22T16:59:46Z</time>
      </trkpt>
      <trkpt lat="47.52445" lon="-1.34945">
        <ele>47</ele>
        <time>2018-09-22T16:59:49Z</time>
      </trkpt>
      <trkpt lat="47.52452" lon="-1.34908">
        <ele>46</ele>
        <time>2018-09-22T16:59:54Z</time>
      </trkpt>
      <trkpt lat="47.52459" lon="-1.34886">
        <ele>45</ele>
        <time>2018-09-22T16:59:57Z</time>
      </trkpt>
      <trkpt lat="47.52462" lon="-1.34879">
        <ele>45</ele>
        <time>2018-09-22T16:59:58Z</time>
      </trkpt>
      <trkpt lat="47.52465" lon="-1.34872">
        <ele>45</ele>
        <time>2018-09-22T16:59:59Z</time>
      </trkpt>
      <trkpt lat="47.52484" lon="-1.34844">
        <ele>44</ele>
        <time>2018-09-22T17:00:04Z</time>
      </trkpt>
      <trkpt lat="47.52488" lon="-1.3484">
        <ele>44</ele>
        <time>2018-09-22T17:00:05Z</time>
      </trkpt>
      <trkpt lat="47.52492" lon="-1.34835">
        <ele>44</ele>
        <time>2018-09-22T17:00:06Z</time>
      </trkpt>
      <trkpt lat="47.52509" lon="-1.34809">
        <ele>43</ele>
        <time>2018-09-22T17:00:11Z</time>
      </trkpt>
      <trkpt lat="47.52529" lon="-1.34775">
        <ele>43</ele>
        <time>2018-09-22T17:00:18Z</time>
      </trkpt>
      <trkpt lat="47.52537" lon="-1.34769">
        <ele>43</ele>
        <time>2018-09-22T17:00:22Z</time>
      </trkpt>
      <trkpt lat="47.52539" lon="-1.3477">
        <ele>43</ele>
        <time>2018-09-22T17:00:23Z</time>
      </trkpt>
      <trkpt lat="47.52544" lon="-1.34782">
        <ele>42</ele>
        <time>2018-09-22T17:00:28Z</time>
      </trkpt>
      <trkpt lat="47.52544" lon="-1.34791">
        <ele>42</ele>
        <time>2018-09-22T17:00:31Z</time>
      </trkpt>
    </trkseg>
  </trk>
</gpx>